<?xml version="1.0" encoding="UTF-8" standalone="no" ?>
<gpx xmlns="http://www.topografix.com/GPX/1/1" xmlns:xsi="http://www.w3.org/2001/XMLSchema-instance" xsi:schemaLocation="http://www.topografix.com/GPX/1/1 http://www.topografix.com/GPX/1/1/gpx.xsd" version="1.1" creator="VisuGPX - https://www.visugpx.com">
  <metadata>
    <name>23-05-2026  SENIERGUES</name>
    <desc><![CDATA[Départ Maison Rurale pour 320m de dénivelée 

Dix marcheurs de Rando-Caillac se sont retrouvés pour cette randonnée sur Séniergues *.
Au milieu du causse de Gramat, des moutons du Quercy pâturent dans une vraie nature « bio », 
avec tout au long du circuit, de nombreux murs en pierre, (il faut dire que la matière première ne manque pas dans ce pays caussenard).
Déjà vers 10 heures, le soleil commence à chauffer ! À la fin de la rando et après avoir bien transpiré nous avons pensé à nos corps fragiles …. et  les avons réhydratés.

Après la Révolution, * SENIERGUES devint une section cadastrale de Montfaucon.
La séparation d’avec Montfaucon fut difficile, car de 1848 à 1936, les habitants ne cessèrent de demander que leur hameau soit érigé en commune indépendante.
Le 6 mars 1932, leur vœu fut enfin exaucé.
]]></desc>
  </metadata>
  <trk>
    <name><![CDATA[215 SENIERGUES La Couliere]]></name>
    <trkseg>
      <trkpt lat="44.70162" lon="1.54642">
        <ele>388.03</ele>
        <time>2026-05-23T05:50:56Z</time>
      </trkpt>
      <trkpt lat="44.70168" lon="1.54641">
        <ele>387.07</ele>
        <time>2026-05-23T05:51:21Z</time>
      </trkpt>
      <trkpt lat="44.70168" lon="1.54642">
        <ele>387.07</ele>
        <time>2026-05-23T05:51:40Z</time>
      </trkpt>
      <trkpt lat="44.70167" lon="1.54643">
        <ele>387.07</ele>
        <time>2026-05-23T05:51:59Z</time>
      </trkpt>
      <trkpt lat="44.70166" lon="1.54641">
        <ele>387.07</ele>
        <time>2026-05-23T05:52:13Z</time>
      </trkpt>
      <trkpt lat="44.70168" lon="1.54643">
        <ele>387.55</ele>
        <time>2026-05-23T05:52:24Z</time>
      </trkpt>
      <trkpt lat="44.70169" lon="1.54643">
        <ele>386.11</ele>
        <time>2026-05-23T05:52:37Z</time>
      </trkpt>
      <trkpt lat="44.70168" lon="1.54644">
        <ele>387.55</ele>
        <time>2026-05-23T05:52:55Z</time>
      </trkpt>
      <trkpt lat="44.70168" lon="1.54646">
        <ele>388.51</ele>
        <time>2026-05-23T05:53:18Z</time>
      </trkpt>
      <trkpt lat="44.70166" lon="1.54648">
        <ele>388.03</ele>
        <time>2026-05-23T05:53:31Z</time>
      </trkpt>
      <trkpt lat="44.70167" lon="1.54644">
        <ele>388.03</ele>
        <time>2026-05-23T05:53:46Z</time>
      </trkpt>
      <trkpt lat="44.70165" lon="1.54644">
        <ele>388.03</ele>
        <time>2026-05-23T05:53:53Z</time>
      </trkpt>
      <trkpt lat="44.70161" lon="1.54648">
        <ele>388.03</ele>
        <time>2026-05-23T05:53:58Z</time>
      </trkpt>
      <trkpt lat="44.70149" lon="1.54661">
        <ele>387.55</ele>
        <time>2026-05-23T05:54:11Z</time>
      </trkpt>
      <trkpt lat="44.70143" lon="1.54688">
        <ele>386.11</ele>
        <time>2026-05-23T05:54:27Z</time>
      </trkpt>
      <trkpt lat="44.70132" lon="1.54717">
        <ele>383.22</ele>
        <time>2026-05-23T05:54:46Z</time>
      </trkpt>
      <trkpt lat="44.70128" lon="1.54726">
        <ele>382.26</ele>
        <time>2026-05-23T05:54:52Z</time>
      </trkpt>
      <trkpt lat="44.70129" lon="1.54733">
        <ele>381.78</ele>
        <time>2026-05-23T05:54:59Z</time>
      </trkpt>
      <trkpt lat="44.70134" lon="1.5474">
        <ele>382.26</ele>
        <time>2026-05-23T05:55:10Z</time>
      </trkpt>
      <trkpt lat="44.70134" lon="1.5474">
        <ele>382.26</ele>
        <time>2026-05-23T05:55:12Z</time>
      </trkpt>
      <trkpt lat="44.70129" lon="1.54725">
        <ele>382.26</ele>
        <time>2026-05-23T05:55:20Z</time>
      </trkpt>
      <trkpt lat="44.70129" lon="1.54724">
        <ele>382.26</ele>
        <time>2026-05-23T05:55:21Z</time>
      </trkpt>
      <trkpt lat="44.70133" lon="1.54718">
        <ele>382.26</ele>
        <time>2026-05-23T05:55:26Z</time>
      </trkpt>
      <trkpt lat="44.70136" lon="1.54717">
        <ele>382.26</ele>
        <time>2026-05-23T05:55:29Z</time>
      </trkpt>
      <trkpt lat="44.70138" lon="1.54729">
        <ele>383.7</ele>
        <time>2026-05-23T05:55:41Z</time>
      </trkpt>
      <trkpt lat="44.70139" lon="1.54739">
        <ele>383.22</ele>
        <time>2026-05-23T05:55:48Z</time>
      </trkpt>
      <trkpt lat="44.70141" lon="1.54741">
        <ele>383.22</ele>
        <time>2026-05-23T05:55:51Z</time>
      </trkpt>
      <trkpt lat="44.70145" lon="1.54749">
        <ele>382.26</ele>
        <time>2026-05-23T05:55:57Z</time>
      </trkpt>
      <trkpt lat="44.70151" lon="1.54758">
        <ele>381.78</ele>
        <time>2026-05-23T05:56:05Z</time>
      </trkpt>
      <trkpt lat="44.70153" lon="1.54761">
        <ele>381.3</ele>
        <time>2026-05-23T05:56:07Z</time>
      </trkpt>
      <trkpt lat="44.70167" lon="1.54785">
        <ele>380.34</ele>
        <time>2026-05-23T05:56:26Z</time>
      </trkpt>
      <trkpt lat="44.70171" lon="1.54788">
        <ele>380.34</ele>
        <time>2026-05-23T05:56:30Z</time>
      </trkpt>
      <trkpt lat="44.70175" lon="1.54795">
        <ele>380.34</ele>
        <time>2026-05-23T05:56:36Z</time>
      </trkpt>
      <trkpt lat="44.70182" lon="1.54821">
        <ele>379.86</ele>
        <time>2026-05-23T05:56:54Z</time>
      </trkpt>
      <trkpt lat="44.70186" lon="1.54828">
        <ele>382.74</ele>
        <time>2026-05-23T05:57:10Z</time>
      </trkpt>
      <trkpt lat="44.70188" lon="1.54833">
        <ele>383.22</ele>
        <time>2026-05-23T05:57:20Z</time>
      </trkpt>
      <trkpt lat="44.70198" lon="1.5485">
        <ele>381.3</ele>
        <time>2026-05-23T05:57:34Z</time>
      </trkpt>
      <trkpt lat="44.70207" lon="1.54874">
        <ele>378.9</ele>
        <time>2026-05-23T05:57:50Z</time>
      </trkpt>
      <trkpt lat="44.70213" lon="1.549">
        <ele>376.97</ele>
        <time>2026-05-23T05:58:06Z</time>
      </trkpt>
      <trkpt lat="44.70217" lon="1.54901">
        <ele>376.97</ele>
        <time>2026-05-23T05:58:10Z</time>
      </trkpt>
      <trkpt lat="44.7023" lon="1.54898">
        <ele>375.53</ele>
        <time>2026-05-23T05:58:20Z</time>
      </trkpt>
      <trkpt lat="44.70236" lon="1.54897">
        <ele>375.05</ele>
        <time>2026-05-23T05:58:25Z</time>
      </trkpt>
      <trkpt lat="44.70255" lon="1.54898">
        <ele>371.69</ele>
        <time>2026-05-23T05:58:42Z</time>
      </trkpt>
      <trkpt lat="44.70277" lon="1.54907">
        <ele>368.8</ele>
        <time>2026-05-23T05:59:00Z</time>
      </trkpt>
      <trkpt lat="44.70294" lon="1.54917">
        <ele>365.44</ele>
        <time>2026-05-23T05:59:15Z</time>
      </trkpt>
      <trkpt lat="44.70313" lon="1.54935">
        <ele>360.63</ele>
        <time>2026-05-23T05:59:34Z</time>
      </trkpt>
      <trkpt lat="44.70329" lon="1.54949">
        <ele>358.71</ele>
        <time>2026-05-23T05:59:50Z</time>
      </trkpt>
      <trkpt lat="44.70344" lon="1.54962">
        <ele>354.38</ele>
        <time>2026-05-23T06:00:07Z</time>
      </trkpt>
      <trkpt lat="44.70359" lon="1.54976">
        <ele>349.58</ele>
        <time>2026-05-23T06:00:22Z</time>
      </trkpt>
      <trkpt lat="44.70371" lon="1.54986">
        <ele>348.13</ele>
        <time>2026-05-23T06:00:35Z</time>
      </trkpt>
      <trkpt lat="44.70387" lon="1.55">
        <ele>345.25</ele>
        <time>2026-05-23T06:00:50Z</time>
      </trkpt>
      <trkpt lat="44.70401" lon="1.55012">
        <ele>341.89</ele>
        <time>2026-05-23T06:01:05Z</time>
      </trkpt>
      <trkpt lat="44.70415" lon="1.55024">
        <ele>339.48</ele>
        <time>2026-05-23T06:01:19Z</time>
      </trkpt>
      <trkpt lat="44.70431" lon="1.55034">
        <ele>339.48</ele>
        <time>2026-05-23T06:01:33Z</time>
      </trkpt>
      <trkpt lat="44.70446" lon="1.55041">
        <ele>339</ele>
        <time>2026-05-23T06:01:48Z</time>
      </trkpt>
      <trkpt lat="44.70464" lon="1.55047">
        <ele>339.96</ele>
        <time>2026-05-23T06:02:05Z</time>
      </trkpt>
      <trkpt lat="44.70475" lon="1.55051">
        <ele>339</ele>
        <time>2026-05-23T06:02:15Z</time>
      </trkpt>
      <trkpt lat="44.70488" lon="1.55054">
        <ele>334.68</ele>
        <time>2026-05-23T06:02:29Z</time>
      </trkpt>
      <trkpt lat="44.70502" lon="1.55057">
        <ele>331.79</ele>
        <time>2026-05-23T06:02:44Z</time>
      </trkpt>
      <trkpt lat="44.70513" lon="1.55059">
        <ele>329.39</ele>
        <time>2026-05-23T06:02:56Z</time>
      </trkpt>
      <trkpt lat="44.70525" lon="1.55064">
        <ele>327.95</ele>
        <time>2026-05-23T06:03:07Z</time>
      </trkpt>
      <trkpt lat="44.70537" lon="1.55069">
        <ele>322.18</ele>
        <time>2026-05-23T06:03:20Z</time>
      </trkpt>
      <trkpt lat="44.70547" lon="1.55071">
        <ele>320.74</ele>
        <time>2026-05-23T06:03:27Z</time>
      </trkpt>
      <trkpt lat="44.70551" lon="1.55076">
        <ele>319.3</ele>
        <time>2026-05-23T06:03:30Z</time>
      </trkpt>
      <trkpt lat="44.70555" lon="1.55082">
        <ele>316.89</ele>
        <time>2026-05-23T06:03:44Z</time>
      </trkpt>
      <trkpt lat="44.70555" lon="1.55083">
        <ele>315.93</ele>
        <time>2026-05-23T06:03:56Z</time>
      </trkpt>
      <trkpt lat="44.70555" lon="1.55088">
        <ele>317.85</ele>
        <time>2026-05-23T06:04:10Z</time>
      </trkpt>
      <trkpt lat="44.70558" lon="1.55103">
        <ele>318.81</ele>
        <time>2026-05-23T06:04:23Z</time>
      </trkpt>
      <trkpt lat="44.70563" lon="1.55125">
        <ele>318.81</ele>
        <time>2026-05-23T06:04:39Z</time>
      </trkpt>
      <trkpt lat="44.70571" lon="1.55153">
        <ele>315.45</ele>
        <time>2026-05-23T06:04:57Z</time>
      </trkpt>
      <trkpt lat="44.70577" lon="1.55176">
        <ele>314.49</ele>
        <time>2026-05-23T06:05:14Z</time>
      </trkpt>
      <trkpt lat="44.70582" lon="1.55199">
        <ele>314.97</ele>
        <time>2026-05-23T06:05:29Z</time>
      </trkpt>
      <trkpt lat="44.70588" lon="1.55234">
        <ele>315.45</ele>
        <time>2026-05-23T06:05:48Z</time>
      </trkpt>
      <trkpt lat="44.706" lon="1.55255">
        <ele>311.12</ele>
        <time>2026-05-23T06:06:07Z</time>
      </trkpt>
      <trkpt lat="44.70601" lon="1.55262">
        <ele>310.64</ele>
        <time>2026-05-23T06:06:12Z</time>
      </trkpt>
      <trkpt lat="44.7061" lon="1.55279">
        <ele>312.09</ele>
        <time>2026-05-23T06:06:27Z</time>
      </trkpt>
      <trkpt lat="44.70621" lon="1.55298">
        <ele>313.53</ele>
        <time>2026-05-23T06:06:43Z</time>
      </trkpt>
      <trkpt lat="44.70631" lon="1.55316">
        <ele>316.41</ele>
        <time>2026-05-23T06:06:55Z</time>
      </trkpt>
      <trkpt lat="44.70644" lon="1.55333">
        <ele>312.57</ele>
        <time>2026-05-23T06:07:08Z</time>
      </trkpt>
      <trkpt lat="44.70658" lon="1.55358">
        <ele>314.01</ele>
        <time>2026-05-23T06:07:27Z</time>
      </trkpt>
      <trkpt lat="44.70666" lon="1.55373">
        <ele>311.6</ele>
        <time>2026-05-23T06:07:41Z</time>
      </trkpt>
      <trkpt lat="44.70679" lon="1.55394">
        <ele>307.76</ele>
        <time>2026-05-23T06:07:57Z</time>
      </trkpt>
      <trkpt lat="44.70693" lon="1.5542">
        <ele>305.36</ele>
        <time>2026-05-23T06:08:15Z</time>
      </trkpt>
      <trkpt lat="44.70706" lon="1.5544">
        <ele>302.95</ele>
        <time>2026-05-23T06:08:31Z</time>
      </trkpt>
      <trkpt lat="44.70715" lon="1.55459">
        <ele>302.47</ele>
        <time>2026-05-23T06:08:45Z</time>
      </trkpt>
      <trkpt lat="44.70718" lon="1.55462">
        <ele>302.95</ele>
        <time>2026-05-23T06:08:48Z</time>
      </trkpt>
      <trkpt lat="44.70728" lon="1.55481">
        <ele>302.95</ele>
        <time>2026-05-23T06:09:02Z</time>
      </trkpt>
      <trkpt lat="44.70738" lon="1.55502">
        <ele>302.47</ele>
        <time>2026-05-23T06:09:17Z</time>
      </trkpt>
      <trkpt lat="44.70742" lon="1.55519">
        <ele>299.11</ele>
        <time>2026-05-23T06:09:30Z</time>
      </trkpt>
      <trkpt lat="44.70752" lon="1.55539">
        <ele>298.15</ele>
        <time>2026-05-23T06:09:46Z</time>
      </trkpt>
      <trkpt lat="44.70753" lon="1.5554">
        <ele>298.15</ele>
        <time>2026-05-23T06:09:47Z</time>
      </trkpt>
      <trkpt lat="44.70766" lon="1.55557">
        <ele>298.15</ele>
        <time>2026-05-23T06:09:59Z</time>
      </trkpt>
      <trkpt lat="44.70773" lon="1.55569">
        <ele>297.18</ele>
        <time>2026-05-23T06:10:11Z</time>
      </trkpt>
      <trkpt lat="44.70774" lon="1.55571">
        <ele>297.18</ele>
        <time>2026-05-23T06:10:13Z</time>
      </trkpt>
      <trkpt lat="44.70792" lon="1.55588">
        <ele>297.18</ele>
        <time>2026-05-23T06:10:28Z</time>
      </trkpt>
      <trkpt lat="44.70802" lon="1.55598">
        <ele>298.15</ele>
        <time>2026-05-23T06:10:40Z</time>
      </trkpt>
      <trkpt lat="44.70816" lon="1.55609">
        <ele>298.63</ele>
        <time>2026-05-23T06:10:52Z</time>
      </trkpt>
      <trkpt lat="44.70817" lon="1.5561">
        <ele>298.63</ele>
        <time>2026-05-23T06:10:53Z</time>
      </trkpt>
      <trkpt lat="44.7083" lon="1.5562">
        <ele>297.67</ele>
        <time>2026-05-23T06:11:06Z</time>
      </trkpt>
      <trkpt lat="44.70843" lon="1.5563">
        <ele>297.18</ele>
        <time>2026-05-23T06:11:20Z</time>
      </trkpt>
      <trkpt lat="44.70854" lon="1.55638">
        <ele>295.74</ele>
        <time>2026-05-23T06:11:32Z</time>
      </trkpt>
      <trkpt lat="44.70864" lon="1.55645">
        <ele>290.94</ele>
        <time>2026-05-23T06:11:44Z</time>
      </trkpt>
      <trkpt lat="44.70877" lon="1.55651">
        <ele>287.57</ele>
        <time>2026-05-23T06:11:56Z</time>
      </trkpt>
      <trkpt lat="44.7089" lon="1.5566">
        <ele>288.05</ele>
        <time>2026-05-23T06:12:08Z</time>
      </trkpt>
      <trkpt lat="44.70905" lon="1.55666">
        <ele>285.65</ele>
        <time>2026-05-23T06:12:20Z</time>
      </trkpt>
      <trkpt lat="44.70913" lon="1.5567">
        <ele>285.17</ele>
        <time>2026-05-23T06:12:27Z</time>
      </trkpt>
      <trkpt lat="44.70915" lon="1.55671">
        <ele>285.17</ele>
        <time>2026-05-23T06:12:29Z</time>
      </trkpt>
      <trkpt lat="44.70932" lon="1.55674">
        <ele>286.61</ele>
        <time>2026-05-23T06:12:43Z</time>
      </trkpt>
      <trkpt lat="44.70937" lon="1.55673">
        <ele>288.05</ele>
        <time>2026-05-23T06:12:48Z</time>
      </trkpt>
      <trkpt lat="44.70939" lon="1.55672">
        <ele>288.53</ele>
        <time>2026-05-23T06:12:50Z</time>
      </trkpt>
      <trkpt lat="44.70948" lon="1.55673">
        <ele>290.46</ele>
        <time>2026-05-23T06:13:03Z</time>
      </trkpt>
      <trkpt lat="44.70964" lon="1.55675">
        <ele>292.86</ele>
        <time>2026-05-23T06:13:16Z</time>
      </trkpt>
      <trkpt lat="44.70976" lon="1.55684">
        <ele>290.46</ele>
        <time>2026-05-23T06:13:30Z</time>
      </trkpt>
      <trkpt lat="44.7099" lon="1.55693">
        <ele>288.05</ele>
        <time>2026-05-23T06:13:45Z</time>
      </trkpt>
      <trkpt lat="44.71005" lon="1.55702">
        <ele>289.01</ele>
        <time>2026-05-23T06:13:59Z</time>
      </trkpt>
      <trkpt lat="44.71018" lon="1.55713">
        <ele>287.09</ele>
        <time>2026-05-23T06:14:11Z</time>
      </trkpt>
      <trkpt lat="44.71026" lon="1.5572">
        <ele>283.73</ele>
        <time>2026-05-23T06:14:23Z</time>
      </trkpt>
      <trkpt lat="44.71031" lon="1.55723">
        <ele>283.25</ele>
        <time>2026-05-23T06:14:27Z</time>
      </trkpt>
      <trkpt lat="44.71045" lon="1.55732">
        <ele>280.84</ele>
        <time>2026-05-23T06:14:41Z</time>
      </trkpt>
      <trkpt lat="44.71056" lon="1.55738">
        <ele>278.92</ele>
        <time>2026-05-23T06:14:54Z</time>
      </trkpt>
      <trkpt lat="44.71071" lon="1.5575">
        <ele>277.96</ele>
        <time>2026-05-23T06:15:10Z</time>
      </trkpt>
      <trkpt lat="44.71083" lon="1.55757">
        <ele>278.92</ele>
        <time>2026-05-23T06:15:21Z</time>
      </trkpt>
      <trkpt lat="44.71099" lon="1.55767">
        <ele>280.36</ele>
        <time>2026-05-23T06:15:33Z</time>
      </trkpt>
      <trkpt lat="44.71112" lon="1.55774">
        <ele>281.8</ele>
        <time>2026-05-23T06:15:45Z</time>
      </trkpt>
      <trkpt lat="44.71126" lon="1.55773">
        <ele>285.65</ele>
        <time>2026-05-23T06:15:57Z</time>
      </trkpt>
      <trkpt lat="44.71128" lon="1.55769">
        <ele>287.09</ele>
        <time>2026-05-23T06:16:03Z</time>
      </trkpt>
      <trkpt lat="44.71135" lon="1.5575">
        <ele>289.49</ele>
        <time>2026-05-23T06:16:17Z</time>
      </trkpt>
      <trkpt lat="44.71141" lon="1.55744">
        <ele>289.01</ele>
        <time>2026-05-23T06:16:26Z</time>
      </trkpt>
      <trkpt lat="44.71154" lon="1.55747">
        <ele>289.01</ele>
        <time>2026-05-23T06:16:37Z</time>
      </trkpt>
      <trkpt lat="44.71168" lon="1.55754">
        <ele>289.01</ele>
        <time>2026-05-23T06:16:48Z</time>
      </trkpt>
      <trkpt lat="44.71186" lon="1.55761">
        <ele>291.9</ele>
        <time>2026-05-23T06:17:02Z</time>
      </trkpt>
      <trkpt lat="44.71199" lon="1.55763">
        <ele>289.49</ele>
        <time>2026-05-23T06:17:14Z</time>
      </trkpt>
      <trkpt lat="44.71215" lon="1.55766">
        <ele>288.05</ele>
        <time>2026-05-23T06:17:26Z</time>
      </trkpt>
      <trkpt lat="44.71231" lon="1.55765">
        <ele>286.61</ele>
        <time>2026-05-23T06:17:39Z</time>
      </trkpt>
      <trkpt lat="44.71245" lon="1.55762">
        <ele>286.61</ele>
        <time>2026-05-23T06:17:51Z</time>
      </trkpt>
      <trkpt lat="44.71257" lon="1.55761">
        <ele>287.09</ele>
        <time>2026-05-23T06:18:03Z</time>
      </trkpt>
      <trkpt lat="44.71271" lon="1.55765">
        <ele>287.09</ele>
        <time>2026-05-23T06:18:16Z</time>
      </trkpt>
      <trkpt lat="44.71291" lon="1.55768">
        <ele>282.28</ele>
        <time>2026-05-23T06:18:31Z</time>
      </trkpt>
      <trkpt lat="44.71303" lon="1.55775">
        <ele>279.4</ele>
        <time>2026-05-23T06:18:43Z</time>
      </trkpt>
      <trkpt lat="44.71316" lon="1.55781">
        <ele>276.52</ele>
        <time>2026-05-23T06:18:54Z</time>
      </trkpt>
      <trkpt lat="44.71325" lon="1.55785">
        <ele>275.07</ele>
        <time>2026-05-23T06:19:01Z</time>
      </trkpt>
      <trkpt lat="44.71327" lon="1.55787">
        <ele>275.07</ele>
        <time>2026-05-23T06:19:03Z</time>
      </trkpt>
      <trkpt lat="44.7134" lon="1.55796">
        <ele>273.63</ele>
        <time>2026-05-23T06:19:17Z</time>
      </trkpt>
      <trkpt lat="44.71356" lon="1.55804">
        <ele>270.27</ele>
        <time>2026-05-23T06:19:30Z</time>
      </trkpt>
      <trkpt lat="44.71372" lon="1.55812">
        <ele>271.71</ele>
        <time>2026-05-23T06:19:44Z</time>
      </trkpt>
      <trkpt lat="44.7138" lon="1.55814">
        <ele>272.19</ele>
        <time>2026-05-23T06:19:50Z</time>
      </trkpt>
      <trkpt lat="44.71394" lon="1.55819">
        <ele>271.23</ele>
        <time>2026-05-23T06:20:04Z</time>
      </trkpt>
      <trkpt lat="44.71408" lon="1.55826">
        <ele>271.71</ele>
        <time>2026-05-23T06:20:17Z</time>
      </trkpt>
      <trkpt lat="44.71416" lon="1.55829">
        <ele>271.23</ele>
        <time>2026-05-23T06:20:25Z</time>
      </trkpt>
      <trkpt lat="44.71433" lon="1.55837">
        <ele>272.19</ele>
        <time>2026-05-23T06:20:39Z</time>
      </trkpt>
      <trkpt lat="44.71441" lon="1.55841">
        <ele>272.19</ele>
        <time>2026-05-23T06:20:47Z</time>
      </trkpt>
      <trkpt lat="44.7146" lon="1.55847">
        <ele>270.75</ele>
        <time>2026-05-23T06:21:01Z</time>
      </trkpt>
      <trkpt lat="44.71475" lon="1.55853">
        <ele>270.27</ele>
        <time>2026-05-23T06:21:15Z</time>
      </trkpt>
      <trkpt lat="44.71492" lon="1.55855">
        <ele>268.83</ele>
        <time>2026-05-23T06:21:28Z</time>
      </trkpt>
      <trkpt lat="44.71508" lon="1.55855">
        <ele>268.83</ele>
        <time>2026-05-23T06:21:41Z</time>
      </trkpt>
      <trkpt lat="44.71521" lon="1.55857">
        <ele>270.27</ele>
        <time>2026-05-23T06:21:54Z</time>
      </trkpt>
      <trkpt lat="44.71529" lon="1.55862">
        <ele>270.75</ele>
        <time>2026-05-23T06:22:00Z</time>
      </trkpt>
      <trkpt lat="44.71542" lon="1.5587">
        <ele>272.67</ele>
        <time>2026-05-23T06:22:12Z</time>
      </trkpt>
      <trkpt lat="44.71558" lon="1.55882">
        <ele>272.67</ele>
        <time>2026-05-23T06:22:25Z</time>
      </trkpt>
      <trkpt lat="44.71571" lon="1.559">
        <ele>275.07</ele>
        <time>2026-05-23T06:22:39Z</time>
      </trkpt>
      <trkpt lat="44.71583" lon="1.55917">
        <ele>275.07</ele>
        <time>2026-05-23T06:22:53Z</time>
      </trkpt>
      <trkpt lat="44.71599" lon="1.55934">
        <ele>273.15</ele>
        <time>2026-05-23T06:23:09Z</time>
      </trkpt>
      <trkpt lat="44.71618" lon="1.55953">
        <ele>268.83</ele>
        <time>2026-05-23T06:23:28Z</time>
      </trkpt>
      <trkpt lat="44.71636" lon="1.55956">
        <ele>269.79</ele>
        <time>2026-05-23T06:23:42Z</time>
      </trkpt>
      <trkpt lat="44.71655" lon="1.55957">
        <ele>270.27</ele>
        <time>2026-05-23T06:23:58Z</time>
      </trkpt>
      <trkpt lat="44.71673" lon="1.5596">
        <ele>270.27</ele>
        <time>2026-05-23T06:24:13Z</time>
      </trkpt>
      <trkpt lat="44.71689" lon="1.55966">
        <ele>270.27</ele>
        <time>2026-05-23T06:24:26Z</time>
      </trkpt>
      <trkpt lat="44.71696" lon="1.55972">
        <ele>269.31</ele>
        <time>2026-05-23T06:24:33Z</time>
      </trkpt>
      <trkpt lat="44.71715" lon="1.55981">
        <ele>266.9</ele>
        <time>2026-05-23T06:24:48Z</time>
      </trkpt>
      <trkpt lat="44.7173" lon="1.5599">
        <ele>265.94</ele>
        <time>2026-05-23T06:25:03Z</time>
      </trkpt>
      <trkpt lat="44.71749" lon="1.55995">
        <ele>264.5</ele>
        <time>2026-05-23T06:25:18Z</time>
      </trkpt>
      <trkpt lat="44.71768" lon="1.56">
        <ele>264.5</ele>
        <time>2026-05-23T06:25:33Z</time>
      </trkpt>
      <trkpt lat="44.71779" lon="1.56003">
        <ele>264.5</ele>
        <time>2026-05-23T06:25:43Z</time>
      </trkpt>
      <trkpt lat="44.71798" lon="1.56014">
        <ele>266.9</ele>
        <time>2026-05-23T06:26:00Z</time>
      </trkpt>
      <trkpt lat="44.71813" lon="1.56023">
        <ele>266.42</ele>
        <time>2026-05-23T06:26:13Z</time>
      </trkpt>
      <trkpt lat="44.71824" lon="1.56028">
        <ele>266.42</ele>
        <time>2026-05-23T06:26:22Z</time>
      </trkpt>
      <trkpt lat="44.71842" lon="1.5604">
        <ele>266.42</ele>
        <time>2026-05-23T06:26:39Z</time>
      </trkpt>
      <trkpt lat="44.71864" lon="1.56053">
        <ele>264.5</ele>
        <time>2026-05-23T06:26:56Z</time>
      </trkpt>
      <trkpt lat="44.71885" lon="1.56062">
        <ele>262.58</ele>
        <time>2026-05-23T06:27:13Z</time>
      </trkpt>
      <trkpt lat="44.71905" lon="1.56073">
        <ele>262.1</ele>
        <time>2026-05-23T06:27:31Z</time>
      </trkpt>
      <trkpt lat="44.71909" lon="1.56075">
        <ele>261.14</ele>
        <time>2026-05-23T06:27:47Z</time>
      </trkpt>
      <trkpt lat="44.71914" lon="1.56079">
        <ele>260.17</ele>
        <time>2026-05-23T06:28:00Z</time>
      </trkpt>
      <trkpt lat="44.71927" lon="1.56087">
        <ele>260.65</ele>
        <time>2026-05-23T06:28:15Z</time>
      </trkpt>
      <trkpt lat="44.71941" lon="1.561">
        <ele>260.17</ele>
        <time>2026-05-23T06:28:31Z</time>
      </trkpt>
      <trkpt lat="44.71949" lon="1.56107">
        <ele>259.21</ele>
        <time>2026-05-23T06:28:40Z</time>
      </trkpt>
      <trkpt lat="44.71963" lon="1.56122">
        <ele>259.21</ele>
        <time>2026-05-23T06:28:55Z</time>
      </trkpt>
      <trkpt lat="44.7198" lon="1.56141">
        <ele>257.29</ele>
        <time>2026-05-23T06:29:13Z</time>
      </trkpt>
      <trkpt lat="44.71993" lon="1.5616">
        <ele>255.85</ele>
        <time>2026-05-23T06:29:29Z</time>
      </trkpt>
      <trkpt lat="44.72006" lon="1.56179">
        <ele>257.77</ele>
        <time>2026-05-23T06:29:45Z</time>
      </trkpt>
      <trkpt lat="44.72004" lon="1.56195">
        <ele>257.77</ele>
        <time>2026-05-23T06:29:57Z</time>
      </trkpt>
      <trkpt lat="44.71996" lon="1.56217">
        <ele>259.69</ele>
        <time>2026-05-23T06:30:13Z</time>
      </trkpt>
      <trkpt lat="44.71992" lon="1.56239">
        <ele>263.06</ele>
        <time>2026-05-23T06:30:29Z</time>
      </trkpt>
      <trkpt lat="44.71992" lon="1.5626">
        <ele>264.98</ele>
        <time>2026-05-23T06:30:44Z</time>
      </trkpt>
      <trkpt lat="44.71995" lon="1.56276">
        <ele>266.9</ele>
        <time>2026-05-23T06:30:55Z</time>
      </trkpt>
      <trkpt lat="44.71995" lon="1.56278">
        <ele>267.38</ele>
        <time>2026-05-23T06:30:57Z</time>
      </trkpt>
      <trkpt lat="44.71998" lon="1.56289">
        <ele>268.35</ele>
        <time>2026-05-23T06:31:06Z</time>
      </trkpt>
      <trkpt lat="44.72006" lon="1.5631">
        <ele>271.71</ele>
        <time>2026-05-23T06:31:24Z</time>
      </trkpt>
      <trkpt lat="44.72009" lon="1.56327">
        <ele>273.63</ele>
        <time>2026-05-23T06:31:36Z</time>
      </trkpt>
      <trkpt lat="44.72009" lon="1.56332">
        <ele>274.59</ele>
        <time>2026-05-23T06:31:41Z</time>
      </trkpt>
      <trkpt lat="44.72012" lon="1.56352">
        <ele>276.04</ele>
        <time>2026-05-23T06:31:54Z</time>
      </trkpt>
      <trkpt lat="44.72016" lon="1.56367">
        <ele>277</ele>
        <time>2026-05-23T06:32:04Z</time>
      </trkpt>
      <trkpt lat="44.72025" lon="1.56381">
        <ele>276.52</ele>
        <time>2026-05-23T06:32:16Z</time>
      </trkpt>
      <trkpt lat="44.72025" lon="1.56401">
        <ele>275.56</ele>
        <time>2026-05-23T06:32:33Z</time>
      </trkpt>
      <trkpt lat="44.7203" lon="1.56409">
        <ele>274.59</ele>
        <time>2026-05-23T06:32:39Z</time>
      </trkpt>
      <trkpt lat="44.72044" lon="1.56427">
        <ele>274.59</ele>
        <time>2026-05-23T06:32:47Z</time>
      </trkpt>
      <trkpt lat="44.72057" lon="1.56438">
        <ele>277.96</ele>
        <time>2026-05-23T06:33:01Z</time>
      </trkpt>
      <trkpt lat="44.72057" lon="1.5644">
        <ele>277.96</ele>
        <time>2026-05-23T06:33:07Z</time>
      </trkpt>
      <trkpt lat="44.72062" lon="1.56444">
        <ele>277.48</ele>
        <time>2026-05-23T06:33:10Z</time>
      </trkpt>
      <trkpt lat="44.72063" lon="1.56445">
        <ele>277.48</ele>
        <time>2026-05-23T06:33:11Z</time>
      </trkpt>
      <trkpt lat="44.72064" lon="1.56446">
        <ele>277.48</ele>
        <time>2026-05-23T06:33:12Z</time>
      </trkpt>
      <trkpt lat="44.72065" lon="1.56446">
        <ele>277.96</ele>
        <time>2026-05-23T06:33:13Z</time>
      </trkpt>
      <trkpt lat="44.72066" lon="1.56447">
        <ele>277.96</ele>
        <time>2026-05-23T06:33:14Z</time>
      </trkpt>
      <trkpt lat="44.72085" lon="1.56445">
        <ele>276.52</ele>
        <time>2026-05-23T06:33:30Z</time>
      </trkpt>
      <trkpt lat="44.72097" lon="1.56434">
        <ele>273.63</ele>
        <time>2026-05-23T06:33:44Z</time>
      </trkpt>
      <trkpt lat="44.72109" lon="1.5643">
        <ele>273.15</ele>
        <time>2026-05-23T06:33:53Z</time>
      </trkpt>
      <trkpt lat="44.7211" lon="1.56432">
        <ele>273.15</ele>
        <time>2026-05-23T06:33:54Z</time>
      </trkpt>
      <trkpt lat="44.72112" lon="1.56433">
        <ele>273.15</ele>
        <time>2026-05-23T06:33:55Z</time>
      </trkpt>
      <trkpt lat="44.72121" lon="1.56452">
        <ele>271.23</ele>
        <time>2026-05-23T06:34:10Z</time>
      </trkpt>
      <trkpt lat="44.72125" lon="1.56475">
        <ele>270.27</ele>
        <time>2026-05-23T06:34:23Z</time>
      </trkpt>
      <trkpt lat="44.72129" lon="1.56504">
        <ele>268.83</ele>
        <time>2026-05-23T06:34:40Z</time>
      </trkpt>
      <trkpt lat="44.72134" lon="1.56534">
        <ele>266.9</ele>
        <time>2026-05-23T06:34:59Z</time>
      </trkpt>
      <trkpt lat="44.72137" lon="1.56555">
        <ele>265.46</ele>
        <time>2026-05-23T06:35:12Z</time>
      </trkpt>
      <trkpt lat="44.72138" lon="1.56561">
        <ele>264.98</ele>
        <time>2026-05-23T06:35:15Z</time>
      </trkpt>
      <trkpt lat="44.72138" lon="1.5659">
        <ele>264.02</ele>
        <time>2026-05-23T06:35:31Z</time>
      </trkpt>
      <trkpt lat="44.72137" lon="1.56619">
        <ele>265.46</ele>
        <time>2026-05-23T06:35:49Z</time>
      </trkpt>
      <trkpt lat="44.72135" lon="1.56647">
        <ele>266.9</ele>
        <time>2026-05-23T06:36:05Z</time>
      </trkpt>
      <trkpt lat="44.72135" lon="1.56671">
        <ele>266.42</ele>
        <time>2026-05-23T06:36:19Z</time>
      </trkpt>
      <trkpt lat="44.72142" lon="1.56707">
        <ele>268.83</ele>
        <time>2026-05-23T06:36:39Z</time>
      </trkpt>
      <trkpt lat="44.72142" lon="1.56709">
        <ele>269.31</ele>
        <time>2026-05-23T06:36:40Z</time>
      </trkpt>
      <trkpt lat="44.72143" lon="1.56711">
        <ele>269.31</ele>
        <time>2026-05-23T06:36:41Z</time>
      </trkpt>
      <trkpt lat="44.72143" lon="1.56713">
        <ele>269.79</ele>
        <time>2026-05-23T06:36:42Z</time>
      </trkpt>
      <trkpt lat="44.72144" lon="1.56714">
        <ele>269.79</ele>
        <time>2026-05-23T06:36:43Z</time>
      </trkpt>
      <trkpt lat="44.72145" lon="1.56716">
        <ele>269.79</ele>
        <time>2026-05-23T06:36:44Z</time>
      </trkpt>
      <trkpt lat="44.72148" lon="1.56723">
        <ele>270.75</ele>
        <time>2026-05-23T06:36:49Z</time>
      </trkpt>
      <trkpt lat="44.72148" lon="1.56724">
        <ele>270.75</ele>
        <time>2026-05-23T06:36:50Z</time>
      </trkpt>
      <trkpt lat="44.72149" lon="1.56726">
        <ele>270.75</ele>
        <time>2026-05-23T06:36:51Z</time>
      </trkpt>
      <trkpt lat="44.72149" lon="1.56727">
        <ele>270.75</ele>
        <time>2026-05-23T06:36:52Z</time>
      </trkpt>
      <trkpt lat="44.7215" lon="1.56729">
        <ele>270.75</ele>
        <time>2026-05-23T06:36:53Z</time>
      </trkpt>
      <trkpt lat="44.72162" lon="1.56756">
        <ele>271.23</ele>
        <time>2026-05-23T06:37:12Z</time>
      </trkpt>
      <trkpt lat="44.7217" lon="1.56777">
        <ele>271.71</ele>
        <time>2026-05-23T06:37:26Z</time>
      </trkpt>
      <trkpt lat="44.72175" lon="1.56791">
        <ele>270.27</ele>
        <time>2026-05-23T06:37:38Z</time>
      </trkpt>
      <trkpt lat="44.72179" lon="1.56815">
        <ele>269.31</ele>
        <time>2026-05-23T06:37:51Z</time>
      </trkpt>
      <trkpt lat="44.72181" lon="1.56841">
        <ele>267.86</ele>
        <time>2026-05-23T06:38:05Z</time>
      </trkpt>
      <trkpt lat="44.72181" lon="1.56843">
        <ele>268.35</ele>
        <time>2026-05-23T06:38:06Z</time>
      </trkpt>
      <trkpt lat="44.72181" lon="1.56845">
        <ele>268.35</ele>
        <time>2026-05-23T06:38:07Z</time>
      </trkpt>
      <trkpt lat="44.72183" lon="1.56868">
        <ele>270.75</ele>
        <time>2026-05-23T06:38:19Z</time>
      </trkpt>
      <trkpt lat="44.72185" lon="1.56886">
        <ele>273.15</ele>
        <time>2026-05-23T06:38:30Z</time>
      </trkpt>
      <trkpt lat="44.72187" lon="1.56909">
        <ele>271.71</ele>
        <time>2026-05-23T06:38:42Z</time>
      </trkpt>
      <trkpt lat="44.72189" lon="1.56934">
        <ele>270.27</ele>
        <time>2026-05-23T06:38:54Z</time>
      </trkpt>
      <trkpt lat="44.72193" lon="1.56958">
        <ele>268.35</ele>
        <time>2026-05-23T06:39:07Z</time>
      </trkpt>
      <trkpt lat="44.72196" lon="1.56965">
        <ele>267.86</ele>
        <time>2026-05-23T06:39:13Z</time>
      </trkpt>
      <trkpt lat="44.72197" lon="1.56967">
        <ele>267.86</ele>
        <time>2026-05-23T06:39:14Z</time>
      </trkpt>
      <trkpt lat="44.72197" lon="1.56969">
        <ele>267.38</ele>
        <time>2026-05-23T06:39:15Z</time>
      </trkpt>
      <trkpt lat="44.72206" lon="1.56988">
        <ele>265.94</ele>
        <time>2026-05-23T06:39:27Z</time>
      </trkpt>
      <trkpt lat="44.72221" lon="1.57008">
        <ele>265.94</ele>
        <time>2026-05-23T06:39:41Z</time>
      </trkpt>
      <trkpt lat="44.72224" lon="1.5701">
        <ele>265.94</ele>
        <time>2026-05-23T06:39:44Z</time>
      </trkpt>
      <trkpt lat="44.72225" lon="1.5701">
        <ele>265.94</ele>
        <time>2026-05-23T06:39:45Z</time>
      </trkpt>
      <trkpt lat="44.72238" lon="1.57015">
        <ele>264.5</ele>
        <time>2026-05-23T06:39:55Z</time>
      </trkpt>
      <trkpt lat="44.72257" lon="1.57024">
        <ele>266.9</ele>
        <time>2026-05-23T06:40:11Z</time>
      </trkpt>
      <trkpt lat="44.72278" lon="1.57038">
        <ele>269.79</ele>
        <time>2026-05-23T06:40:28Z</time>
      </trkpt>
      <trkpt lat="44.72295" lon="1.57046">
        <ele>271.71</ele>
        <time>2026-05-23T06:40:44Z</time>
      </trkpt>
      <trkpt lat="44.72311" lon="1.57056">
        <ele>274.59</ele>
        <time>2026-05-23T06:41:00Z</time>
      </trkpt>
      <trkpt lat="44.72327" lon="1.57067">
        <ele>277</ele>
        <time>2026-05-23T06:41:15Z</time>
      </trkpt>
      <trkpt lat="44.72337" lon="1.57079">
        <ele>280.36</ele>
        <time>2026-05-23T06:41:27Z</time>
      </trkpt>
      <trkpt lat="44.72343" lon="1.57086">
        <ele>283.25</ele>
        <time>2026-05-23T06:41:35Z</time>
      </trkpt>
      <trkpt lat="44.72344" lon="1.57087">
        <ele>283.73</ele>
        <time>2026-05-23T06:41:36Z</time>
      </trkpt>
      <trkpt lat="44.72345" lon="1.57089">
        <ele>283.73</ele>
        <time>2026-05-23T06:41:37Z</time>
      </trkpt>
      <trkpt lat="44.72353" lon="1.57102">
        <ele>283.73</ele>
        <time>2026-05-23T06:41:48Z</time>
      </trkpt>
      <trkpt lat="44.72357" lon="1.57109">
        <ele>284.69</ele>
        <time>2026-05-23T06:41:55Z</time>
      </trkpt>
      <trkpt lat="44.72358" lon="1.57111">
        <ele>284.69</ele>
        <time>2026-05-23T06:41:56Z</time>
      </trkpt>
      <trkpt lat="44.72364" lon="1.57119">
        <ele>284.69</ele>
        <time>2026-05-23T06:42:04Z</time>
      </trkpt>
      <trkpt lat="44.72365" lon="1.57121">
        <ele>284.69</ele>
        <time>2026-05-23T06:42:05Z</time>
      </trkpt>
      <trkpt lat="44.72366" lon="1.57123">
        <ele>284.69</ele>
        <time>2026-05-23T06:42:06Z</time>
      </trkpt>
      <trkpt lat="44.72374" lon="1.57137">
        <ele>286.13</ele>
        <time>2026-05-23T06:42:16Z</time>
      </trkpt>
      <trkpt lat="44.72374" lon="1.57139">
        <ele>286.13</ele>
        <time>2026-05-23T06:42:17Z</time>
      </trkpt>
      <trkpt lat="44.72374" lon="1.57142">
        <ele>286.13</ele>
        <time>2026-05-23T06:42:18Z</time>
      </trkpt>
      <trkpt lat="44.72375" lon="1.57144">
        <ele>286.13</ele>
        <time>2026-05-23T06:42:19Z</time>
      </trkpt>
      <trkpt lat="44.72375" lon="1.57146">
        <ele>286.13</ele>
        <time>2026-05-23T06:42:20Z</time>
      </trkpt>
      <trkpt lat="44.72374" lon="1.57154">
        <ele>287.09</ele>
        <time>2026-05-23T06:42:27Z</time>
      </trkpt>
      <trkpt lat="44.72373" lon="1.57156">
        <ele>287.09</ele>
        <time>2026-05-23T06:42:28Z</time>
      </trkpt>
      <trkpt lat="44.72373" lon="1.57158">
        <ele>287.57</ele>
        <time>2026-05-23T06:42:29Z</time>
      </trkpt>
      <trkpt lat="44.72372" lon="1.57168">
        <ele>288.53</ele>
        <time>2026-05-23T06:42:36Z</time>
      </trkpt>
      <trkpt lat="44.72367" lon="1.57192">
        <ele>290.46</ele>
        <time>2026-05-23T06:42:51Z</time>
      </trkpt>
      <trkpt lat="44.72365" lon="1.57216">
        <ele>294.3</ele>
        <time>2026-05-23T06:43:04Z</time>
      </trkpt>
      <trkpt lat="44.72369" lon="1.57242">
        <ele>295.74</ele>
        <time>2026-05-23T06:43:20Z</time>
      </trkpt>
      <trkpt lat="44.72374" lon="1.57252">
        <ele>295.26</ele>
        <time>2026-05-23T06:43:36Z</time>
      </trkpt>
      <trkpt lat="44.7238" lon="1.57269">
        <ele>296.22</ele>
        <time>2026-05-23T06:43:49Z</time>
      </trkpt>
      <trkpt lat="44.7239" lon="1.57287">
        <ele>297.67</ele>
        <time>2026-05-23T06:44:04Z</time>
      </trkpt>
      <trkpt lat="44.72397" lon="1.57307">
        <ele>297.67</ele>
        <time>2026-05-23T06:44:16Z</time>
      </trkpt>
      <trkpt lat="44.72405" lon="1.57333">
        <ele>297.18</ele>
        <time>2026-05-23T06:44:34Z</time>
      </trkpt>
      <trkpt lat="44.72405" lon="1.57337">
        <ele>297.18</ele>
        <time>2026-05-23T06:44:37Z</time>
      </trkpt>
      <trkpt lat="44.72405" lon="1.57339">
        <ele>296.7</ele>
        <time>2026-05-23T06:44:38Z</time>
      </trkpt>
      <trkpt lat="44.72406" lon="1.57361">
        <ele>297.67</ele>
        <time>2026-05-23T06:44:53Z</time>
      </trkpt>
      <trkpt lat="44.72406" lon="1.57375">
        <ele>299.11</ele>
        <time>2026-05-23T06:45:04Z</time>
      </trkpt>
      <trkpt lat="44.72403" lon="1.57391">
        <ele>301.51</ele>
        <time>2026-05-23T06:45:17Z</time>
      </trkpt>
      <trkpt lat="44.72403" lon="1.57414">
        <ele>306.8</ele>
        <time>2026-05-23T06:45:33Z</time>
      </trkpt>
      <trkpt lat="44.72401" lon="1.57441">
        <ele>315.45</ele>
        <time>2026-05-23T06:45:51Z</time>
      </trkpt>
      <trkpt lat="44.724" lon="1.57463">
        <ele>318.33</ele>
        <time>2026-05-23T06:46:06Z</time>
      </trkpt>
      <trkpt lat="44.72398" lon="1.57484">
        <ele>321.7</ele>
        <time>2026-05-23T06:46:22Z</time>
      </trkpt>
      <trkpt lat="44.72397" lon="1.57502">
        <ele>322.18</ele>
        <time>2026-05-23T06:46:32Z</time>
      </trkpt>
      <trkpt lat="44.72395" lon="1.57518">
        <ele>319.78</ele>
        <time>2026-05-23T06:46:44Z</time>
      </trkpt>
      <trkpt lat="44.72393" lon="1.5754">
        <ele>317.85</ele>
        <time>2026-05-23T06:47:00Z</time>
      </trkpt>
      <trkpt lat="44.72391" lon="1.57557">
        <ele>318.81</ele>
        <time>2026-05-23T06:47:12Z</time>
      </trkpt>
      <trkpt lat="44.72387" lon="1.57576">
        <ele>320.26</ele>
        <time>2026-05-23T06:47:27Z</time>
      </trkpt>
      <trkpt lat="44.72384" lon="1.57594">
        <ele>322.66</ele>
        <time>2026-05-23T06:47:40Z</time>
      </trkpt>
      <trkpt lat="44.72378" lon="1.57616">
        <ele>325.54</ele>
        <time>2026-05-23T06:47:57Z</time>
      </trkpt>
      <trkpt lat="44.72381" lon="1.5763">
        <ele>327.47</ele>
        <time>2026-05-23T06:48:06Z</time>
      </trkpt>
      <trkpt lat="44.72388" lon="1.57639">
        <ele>329.39</ele>
        <time>2026-05-23T06:48:18Z</time>
      </trkpt>
      <trkpt lat="44.72389" lon="1.57639">
        <ele>329.87</ele>
        <time>2026-05-23T06:48:19Z</time>
      </trkpt>
      <trkpt lat="44.72401" lon="1.5763">
        <ele>332.27</ele>
        <time>2026-05-23T06:48:33Z</time>
      </trkpt>
      <trkpt lat="44.72412" lon="1.57611">
        <ele>332.75</ele>
        <time>2026-05-23T06:48:51Z</time>
      </trkpt>
      <trkpt lat="44.72424" lon="1.57587">
        <ele>331.31</ele>
        <time>2026-05-23T06:49:09Z</time>
      </trkpt>
      <trkpt lat="44.72435" lon="1.57577">
        <ele>331.31</ele>
        <time>2026-05-23T06:49:23Z</time>
      </trkpt>
      <trkpt lat="44.72437" lon="1.57576">
        <ele>331.31</ele>
        <time>2026-05-23T06:49:25Z</time>
      </trkpt>
      <trkpt lat="44.72438" lon="1.57576">
        <ele>331.31</ele>
        <time>2026-05-23T06:49:26Z</time>
      </trkpt>
      <trkpt lat="44.72439" lon="1.57575">
        <ele>331.31</ele>
        <time>2026-05-23T06:49:27Z</time>
      </trkpt>
      <trkpt lat="44.7244" lon="1.57575">
        <ele>331.31</ele>
        <time>2026-05-23T06:49:28Z</time>
      </trkpt>
      <trkpt lat="44.72441" lon="1.57574">
        <ele>331.31</ele>
        <time>2026-05-23T06:49:29Z</time>
      </trkpt>
      <trkpt lat="44.72443" lon="1.57574">
        <ele>331.31</ele>
        <time>2026-05-23T06:49:31Z</time>
      </trkpt>
      <trkpt lat="44.72449" lon="1.57576">
        <ele>331.79</ele>
        <time>2026-05-23T06:49:36Z</time>
      </trkpt>
      <trkpt lat="44.7245" lon="1.57575">
        <ele>331.79</ele>
        <time>2026-05-23T06:49:37Z</time>
      </trkpt>
      <trkpt lat="44.72451" lon="1.57575">
        <ele>331.79</ele>
        <time>2026-05-23T06:49:38Z</time>
      </trkpt>
      <trkpt lat="44.72452" lon="1.57575">
        <ele>331.79</ele>
        <time>2026-05-23T06:49:39Z</time>
      </trkpt>
      <trkpt lat="44.72454" lon="1.57576">
        <ele>331.79</ele>
        <time>2026-05-23T06:49:40Z</time>
      </trkpt>
      <trkpt lat="44.72455" lon="1.57576">
        <ele>331.79</ele>
        <time>2026-05-23T06:49:41Z</time>
      </trkpt>
      <trkpt lat="44.7248" lon="1.57575">
        <ele>332.27</ele>
        <time>2026-05-23T06:50:02Z</time>
      </trkpt>
      <trkpt lat="44.72494" lon="1.57575">
        <ele>331.31</ele>
        <time>2026-05-23T06:50:14Z</time>
      </trkpt>
      <trkpt lat="44.72496" lon="1.57576">
        <ele>331.31</ele>
        <time>2026-05-23T06:50:15Z</time>
      </trkpt>
      <trkpt lat="44.72503" lon="1.57583">
        <ele>331.31</ele>
        <time>2026-05-23T06:50:29Z</time>
      </trkpt>
      <trkpt lat="44.72503" lon="1.57586">
        <ele>330.83</ele>
        <time>2026-05-23T06:50:31Z</time>
      </trkpt>
      <trkpt lat="44.72501" lon="1.57611">
        <ele>331.31</ele>
        <time>2026-05-23T06:50:48Z</time>
      </trkpt>
      <trkpt lat="44.72496" lon="1.57637">
        <ele>332.27</ele>
        <time>2026-05-23T06:51:07Z</time>
      </trkpt>
      <trkpt lat="44.7249" lon="1.57665">
        <ele>336.12</ele>
        <time>2026-05-23T06:51:27Z</time>
      </trkpt>
      <trkpt lat="44.72484" lon="1.57694">
        <ele>339.96</ele>
        <time>2026-05-23T06:51:47Z</time>
      </trkpt>
      <trkpt lat="44.72482" lon="1.57719">
        <ele>341.89</ele>
        <time>2026-05-23T06:52:02Z</time>
      </trkpt>
      <trkpt lat="44.72481" lon="1.5775">
        <ele>342.85</ele>
        <time>2026-05-23T06:52:22Z</time>
      </trkpt>
      <trkpt lat="44.72481" lon="1.57778">
        <ele>343.81</ele>
        <time>2026-05-23T06:52:38Z</time>
      </trkpt>
      <trkpt lat="44.72482" lon="1.57801">
        <ele>344.29</ele>
        <time>2026-05-23T06:52:51Z</time>
      </trkpt>
      <trkpt lat="44.72484" lon="1.57825">
        <ele>345.25</ele>
        <time>2026-05-23T06:53:06Z</time>
      </trkpt>
      <trkpt lat="44.72485" lon="1.57852">
        <ele>345.73</ele>
        <time>2026-05-23T06:53:22Z</time>
      </trkpt>
      <trkpt lat="44.72488" lon="1.57863">
        <ele>347.17</ele>
        <time>2026-05-23T06:53:39Z</time>
      </trkpt>
      <trkpt lat="44.72489" lon="1.57864">
        <ele>349.1</ele>
        <time>2026-05-23T06:53:55Z</time>
      </trkpt>
      <trkpt lat="44.72491" lon="1.57862">
        <ele>348.62</ele>
        <time>2026-05-23T06:54:08Z</time>
      </trkpt>
      <trkpt lat="44.72488" lon="1.57863">
        <ele>349.1</ele>
        <time>2026-05-23T06:54:24Z</time>
      </trkpt>
      <trkpt lat="44.72487" lon="1.57862">
        <ele>350.06</ele>
        <time>2026-05-23T06:54:58Z</time>
      </trkpt>
      <trkpt lat="44.7249" lon="1.57868">
        <ele>348.62</ele>
        <time>2026-05-23T06:55:17Z</time>
      </trkpt>
      <trkpt lat="44.7249" lon="1.57868">
        <ele>349.1</ele>
        <time>2026-05-23T06:55:33Z</time>
      </trkpt>
      <trkpt lat="44.7249" lon="1.57865">
        <ele>348.62</ele>
        <time>2026-05-23T06:55:47Z</time>
      </trkpt>
      <trkpt lat="44.72491" lon="1.57866">
        <ele>348.62</ele>
        <time>2026-05-23T06:56:01Z</time>
      </trkpt>
      <trkpt lat="44.72492" lon="1.57875">
        <ele>348.62</ele>
        <time>2026-05-23T06:56:17Z</time>
      </trkpt>
      <trkpt lat="44.72496" lon="1.57896">
        <ele>348.13</ele>
        <time>2026-05-23T06:56:32Z</time>
      </trkpt>
      <trkpt lat="44.72498" lon="1.57909">
        <ele>347.65</ele>
        <time>2026-05-23T06:56:41Z</time>
      </trkpt>
      <trkpt lat="44.72499" lon="1.57913">
        <ele>347.65</ele>
        <time>2026-05-23T06:56:44Z</time>
      </trkpt>
      <trkpt lat="44.72499" lon="1.57915">
        <ele>347.65</ele>
        <time>2026-05-23T06:56:45Z</time>
      </trkpt>
      <trkpt lat="44.725" lon="1.57917">
        <ele>347.65</ele>
        <time>2026-05-23T06:56:46Z</time>
      </trkpt>
      <trkpt lat="44.72502" lon="1.57942">
        <ele>346.69</ele>
        <time>2026-05-23T06:57:02Z</time>
      </trkpt>
      <trkpt lat="44.72502" lon="1.57944">
        <ele>346.21</ele>
        <time>2026-05-23T06:57:03Z</time>
      </trkpt>
      <trkpt lat="44.72502" lon="1.57945">
        <ele>346.21</ele>
        <time>2026-05-23T06:57:04Z</time>
      </trkpt>
      <trkpt lat="44.72502" lon="1.57947">
        <ele>346.21</ele>
        <time>2026-05-23T06:57:05Z</time>
      </trkpt>
      <trkpt lat="44.72503" lon="1.57959">
        <ele>346.21</ele>
        <time>2026-05-23T06:57:12Z</time>
      </trkpt>
      <trkpt lat="44.72504" lon="1.57961">
        <ele>346.21</ele>
        <time>2026-05-23T06:57:13Z</time>
      </trkpt>
      <trkpt lat="44.72504" lon="1.57963">
        <ele>346.21</ele>
        <time>2026-05-23T06:57:14Z</time>
      </trkpt>
      <trkpt lat="44.72507" lon="1.57987">
        <ele>346.21</ele>
        <time>2026-05-23T06:57:30Z</time>
      </trkpt>
      <trkpt lat="44.72508" lon="1.58013">
        <ele>347.17</ele>
        <time>2026-05-23T06:57:47Z</time>
      </trkpt>
      <trkpt lat="44.72508" lon="1.58019">
        <ele>347.17</ele>
        <time>2026-05-23T06:57:51Z</time>
      </trkpt>
      <trkpt lat="44.72507" lon="1.58021">
        <ele>347.65</ele>
        <time>2026-05-23T06:57:52Z</time>
      </trkpt>
      <trkpt lat="44.72507" lon="1.58023">
        <ele>347.65</ele>
        <time>2026-05-23T06:57:53Z</time>
      </trkpt>
      <trkpt lat="44.72505" lon="1.58043">
        <ele>348.62</ele>
        <time>2026-05-23T06:58:05Z</time>
      </trkpt>
      <trkpt lat="44.72503" lon="1.58065">
        <ele>350.06</ele>
        <time>2026-05-23T06:58:18Z</time>
      </trkpt>
      <trkpt lat="44.72498" lon="1.58088">
        <ele>349.58</ele>
        <time>2026-05-23T06:58:32Z</time>
      </trkpt>
      <trkpt lat="44.72493" lon="1.58108">
        <ele>350.54</ele>
        <time>2026-05-23T06:58:46Z</time>
      </trkpt>
      <trkpt lat="44.72489" lon="1.58131">
        <ele>351.02</ele>
        <time>2026-05-23T06:59:01Z</time>
      </trkpt>
      <trkpt lat="44.72483" lon="1.58157">
        <ele>349.1</ele>
        <time>2026-05-23T06:59:18Z</time>
      </trkpt>
      <trkpt lat="44.72482" lon="1.58159">
        <ele>349.1</ele>
        <time>2026-05-23T06:59:19Z</time>
      </trkpt>
      <trkpt lat="44.72482" lon="1.58161">
        <ele>349.1</ele>
        <time>2026-05-23T06:59:20Z</time>
      </trkpt>
      <trkpt lat="44.72481" lon="1.58162">
        <ele>349.1</ele>
        <time>2026-05-23T06:59:21Z</time>
      </trkpt>
      <trkpt lat="44.72472" lon="1.58185">
        <ele>349.1</ele>
        <time>2026-05-23T06:59:35Z</time>
      </trkpt>
      <trkpt lat="44.72463" lon="1.58209">
        <ele>349.1</ele>
        <time>2026-05-23T06:59:51Z</time>
      </trkpt>
      <trkpt lat="44.72453" lon="1.58239">
        <ele>348.13</ele>
        <time>2026-05-23T07:00:09Z</time>
      </trkpt>
      <trkpt lat="44.72448" lon="1.58267">
        <ele>346.21</ele>
        <time>2026-05-23T07:00:25Z</time>
      </trkpt>
      <trkpt lat="44.72444" lon="1.58294">
        <ele>345.25</ele>
        <time>2026-05-23T07:00:41Z</time>
      </trkpt>
      <trkpt lat="44.72437" lon="1.58326">
        <ele>346.21</ele>
        <time>2026-05-23T07:00:58Z</time>
      </trkpt>
      <trkpt lat="44.72428" lon="1.58353">
        <ele>347.65</ele>
        <time>2026-05-23T07:01:11Z</time>
      </trkpt>
      <trkpt lat="44.72424" lon="1.58377">
        <ele>348.13</ele>
        <time>2026-05-23T07:01:25Z</time>
      </trkpt>
      <trkpt lat="44.7242" lon="1.58402">
        <ele>348.13</ele>
        <time>2026-05-23T07:01:40Z</time>
      </trkpt>
      <trkpt lat="44.72416" lon="1.58428">
        <ele>348.13</ele>
        <time>2026-05-23T07:01:54Z</time>
      </trkpt>
      <trkpt lat="44.72412" lon="1.58453">
        <ele>348.62</ele>
        <time>2026-05-23T07:02:08Z</time>
      </trkpt>
      <trkpt lat="44.72406" lon="1.5848">
        <ele>348.13</ele>
        <time>2026-05-23T07:02:25Z</time>
      </trkpt>
      <trkpt lat="44.72399" lon="1.58507">
        <ele>350.06</ele>
        <time>2026-05-23T07:02:39Z</time>
      </trkpt>
      <trkpt lat="44.72395" lon="1.5853">
        <ele>352.46</ele>
        <time>2026-05-23T07:02:52Z</time>
      </trkpt>
      <trkpt lat="44.72395" lon="1.58532">
        <ele>352.46</ele>
        <time>2026-05-23T07:02:53Z</time>
      </trkpt>
      <trkpt lat="44.72395" lon="1.58534">
        <ele>352.94</ele>
        <time>2026-05-23T07:02:54Z</time>
      </trkpt>
      <trkpt lat="44.72395" lon="1.58536">
        <ele>352.94</ele>
        <time>2026-05-23T07:02:55Z</time>
      </trkpt>
      <trkpt lat="44.72394" lon="1.58539">
        <ele>353.42</ele>
        <time>2026-05-23T07:02:56Z</time>
      </trkpt>
      <trkpt lat="44.72394" lon="1.58541">
        <ele>353.9</ele>
        <time>2026-05-23T07:02:57Z</time>
      </trkpt>
      <trkpt lat="44.72393" lon="1.58543">
        <ele>353.9</ele>
        <time>2026-05-23T07:02:58Z</time>
      </trkpt>
      <trkpt lat="44.72393" lon="1.58544">
        <ele>354.38</ele>
        <time>2026-05-23T07:02:59Z</time>
      </trkpt>
      <trkpt lat="44.72388" lon="1.58569">
        <ele>356.31</ele>
        <time>2026-05-23T07:03:13Z</time>
      </trkpt>
      <trkpt lat="44.72384" lon="1.58588">
        <ele>358.23</ele>
        <time>2026-05-23T07:03:26Z</time>
      </trkpt>
      <trkpt lat="44.72381" lon="1.58606">
        <ele>358.71</ele>
        <time>2026-05-23T07:03:38Z</time>
      </trkpt>
      <trkpt lat="44.72378" lon="1.58632">
        <ele>358.23</ele>
        <time>2026-05-23T07:03:51Z</time>
      </trkpt>
      <trkpt lat="44.72374" lon="1.58656">
        <ele>358.23</ele>
        <time>2026-05-23T07:04:03Z</time>
      </trkpt>
      <trkpt lat="44.72371" lon="1.58679">
        <ele>357.75</ele>
        <time>2026-05-23T07:04:18Z</time>
      </trkpt>
      <trkpt lat="44.72366" lon="1.58695">
        <ele>357.27</ele>
        <time>2026-05-23T07:04:33Z</time>
      </trkpt>
      <trkpt lat="44.72361" lon="1.58711">
        <ele>356.79</ele>
        <time>2026-05-23T07:04:48Z</time>
      </trkpt>
      <trkpt lat="44.72347" lon="1.58742">
        <ele>358.23</ele>
        <time>2026-05-23T07:05:04Z</time>
      </trkpt>
      <trkpt lat="44.72339" lon="1.58765">
        <ele>359.67</ele>
        <time>2026-05-23T07:05:19Z</time>
      </trkpt>
      <trkpt lat="44.72328" lon="1.58792">
        <ele>360.15</ele>
        <time>2026-05-23T07:05:33Z</time>
      </trkpt>
      <trkpt lat="44.72324" lon="1.58792">
        <ele>360.63</ele>
        <time>2026-05-23T07:05:45Z</time>
      </trkpt>
      <trkpt lat="44.72315" lon="1.58787">
        <ele>361.59</ele>
        <time>2026-05-23T07:06:07Z</time>
      </trkpt>
      <trkpt lat="44.72304" lon="1.58783">
        <ele>360.63</ele>
        <time>2026-05-23T07:06:18Z</time>
      </trkpt>
      <trkpt lat="44.72289" lon="1.58778">
        <ele>357.27</ele>
        <time>2026-05-23T07:06:34Z</time>
      </trkpt>
      <trkpt lat="44.72276" lon="1.58774">
        <ele>354.86</ele>
        <time>2026-05-23T07:06:47Z</time>
      </trkpt>
      <trkpt lat="44.72262" lon="1.58768">
        <ele>352.46</ele>
        <time>2026-05-23T07:07:02Z</time>
      </trkpt>
      <trkpt lat="44.72246" lon="1.58763">
        <ele>349.58</ele>
        <time>2026-05-23T07:07:17Z</time>
      </trkpt>
      <trkpt lat="44.7223" lon="1.58754">
        <ele>348.62</ele>
        <time>2026-05-23T07:07:30Z</time>
      </trkpt>
      <trkpt lat="44.72214" lon="1.58752">
        <ele>345.25</ele>
        <time>2026-05-23T07:07:46Z</time>
      </trkpt>
      <trkpt lat="44.72207" lon="1.58748">
        <ele>341.89</ele>
        <time>2026-05-23T07:07:57Z</time>
      </trkpt>
      <trkpt lat="44.72205" lon="1.58747">
        <ele>340.92</ele>
        <time>2026-05-23T07:07:59Z</time>
      </trkpt>
      <trkpt lat="44.7219" lon="1.58747">
        <ele>336.6</ele>
        <time>2026-05-23T07:08:16Z</time>
      </trkpt>
      <trkpt lat="44.72176" lon="1.58744">
        <ele>332.27</ele>
        <time>2026-05-23T07:08:31Z</time>
      </trkpt>
      <trkpt lat="44.72158" lon="1.58745">
        <ele>326.99</ele>
        <time>2026-05-23T07:08:51Z</time>
      </trkpt>
      <trkpt lat="44.72137" lon="1.5874">
        <ele>322.18</ele>
        <time>2026-05-23T07:09:13Z</time>
      </trkpt>
      <trkpt lat="44.72126" lon="1.58726">
        <ele>320.74</ele>
        <time>2026-05-23T07:09:29Z</time>
      </trkpt>
      <trkpt lat="44.72115" lon="1.58698">
        <ele>321.22</ele>
        <time>2026-05-23T07:09:52Z</time>
      </trkpt>
      <trkpt lat="44.72109" lon="1.58673">
        <ele>318.33</ele>
        <time>2026-05-23T07:10:15Z</time>
      </trkpt>
      <trkpt lat="44.72105" lon="1.5864">
        <ele>313.05</ele>
        <time>2026-05-23T07:10:38Z</time>
      </trkpt>
      <trkpt lat="44.72095" lon="1.58616">
        <ele>307.76</ele>
        <time>2026-05-23T07:10:56Z</time>
      </trkpt>
      <trkpt lat="44.72079" lon="1.58591">
        <ele>305.36</ele>
        <time>2026-05-23T07:11:17Z</time>
      </trkpt>
      <trkpt lat="44.7206" lon="1.58572">
        <ele>305.36</ele>
        <time>2026-05-23T07:11:36Z</time>
      </trkpt>
      <trkpt lat="44.72053" lon="1.58565">
        <ele>305.84</ele>
        <time>2026-05-23T07:11:43Z</time>
      </trkpt>
      <trkpt lat="44.72032" lon="1.58549">
        <ele>305.36</ele>
        <time>2026-05-23T07:12:04Z</time>
      </trkpt>
      <trkpt lat="44.72017" lon="1.58521">
        <ele>304.39</ele>
        <time>2026-05-23T07:12:24Z</time>
      </trkpt>
      <trkpt lat="44.72009" lon="1.58499">
        <ele>304.39</ele>
        <time>2026-05-23T07:12:38Z</time>
      </trkpt>
      <trkpt lat="44.71996" lon="1.58477">
        <ele>303.43</ele>
        <time>2026-05-23T07:12:56Z</time>
      </trkpt>
      <trkpt lat="44.71987" lon="1.58455">
        <ele>302.95</ele>
        <time>2026-05-23T07:13:10Z</time>
      </trkpt>
      <trkpt lat="44.71978" lon="1.58434">
        <ele>302.47</ele>
        <time>2026-05-23T07:13:25Z</time>
      </trkpt>
      <trkpt lat="44.71971" lon="1.58415">
        <ele>303.91</ele>
        <time>2026-05-23T07:13:39Z</time>
      </trkpt>
      <trkpt lat="44.71963" lon="1.58394">
        <ele>304.39</ele>
        <time>2026-05-23T07:13:53Z</time>
      </trkpt>
      <trkpt lat="44.71951" lon="1.58373">
        <ele>304.39</ele>
        <time>2026-05-23T07:14:10Z</time>
      </trkpt>
      <trkpt lat="44.71944" lon="1.58363">
        <ele>303.43</ele>
        <time>2026-05-23T07:14:21Z</time>
      </trkpt>
      <trkpt lat="44.71931" lon="1.58343">
        <ele>302.95</ele>
        <time>2026-05-23T07:14:37Z</time>
      </trkpt>
      <trkpt lat="44.7192" lon="1.58323">
        <ele>301.03</ele>
        <time>2026-05-23T07:14:53Z</time>
      </trkpt>
      <trkpt lat="44.71907" lon="1.583">
        <ele>301.99</ele>
        <time>2026-05-23T07:15:09Z</time>
      </trkpt>
      <trkpt lat="44.71891" lon="1.58279">
        <ele>303.43</ele>
        <time>2026-05-23T07:15:27Z</time>
      </trkpt>
      <trkpt lat="44.71878" lon="1.58261">
        <ele>302.95</ele>
        <time>2026-05-23T07:15:44Z</time>
      </trkpt>
      <trkpt lat="44.71862" lon="1.5824">
        <ele>302.47</ele>
        <time>2026-05-23T07:16:01Z</time>
      </trkpt>
      <trkpt lat="44.71844" lon="1.58225">
        <ele>301.51</ele>
        <time>2026-05-23T07:16:19Z</time>
      </trkpt>
      <trkpt lat="44.71827" lon="1.58206">
        <ele>300.55</ele>
        <time>2026-05-23T07:16:36Z</time>
      </trkpt>
      <trkpt lat="44.71818" lon="1.58183">
        <ele>301.03</ele>
        <time>2026-05-23T07:16:52Z</time>
      </trkpt>
      <trkpt lat="44.71812" lon="1.58162">
        <ele>301.03</ele>
        <time>2026-05-23T07:17:06Z</time>
      </trkpt>
      <trkpt lat="44.71803" lon="1.58147">
        <ele>302.47</ele>
        <time>2026-05-23T07:17:21Z</time>
      </trkpt>
      <trkpt lat="44.71796" lon="1.58143">
        <ele>301.99</ele>
        <time>2026-05-23T07:17:29Z</time>
      </trkpt>
      <trkpt lat="44.71778" lon="1.58145">
        <ele>299.59</ele>
        <time>2026-05-23T07:17:44Z</time>
      </trkpt>
      <trkpt lat="44.71764" lon="1.58148">
        <ele>298.15</ele>
        <time>2026-05-23T07:17:58Z</time>
      </trkpt>
      <trkpt lat="44.71745" lon="1.58146">
        <ele>298.15</ele>
        <time>2026-05-23T07:18:14Z</time>
      </trkpt>
      <trkpt lat="44.71731" lon="1.58142">
        <ele>299.11</ele>
        <time>2026-05-23T07:18:30Z</time>
      </trkpt>
      <trkpt lat="44.7173" lon="1.58141">
        <ele>299.11</ele>
        <time>2026-05-23T07:18:32Z</time>
      </trkpt>
      <trkpt lat="44.71717" lon="1.58138">
        <ele>300.07</ele>
        <time>2026-05-23T07:18:43Z</time>
      </trkpt>
      <trkpt lat="44.71706" lon="1.58138">
        <ele>302.95</ele>
        <time>2026-05-23T07:18:54Z</time>
      </trkpt>
      <trkpt lat="44.71701" lon="1.58137">
        <ele>304.39</ele>
        <time>2026-05-23T07:18:59Z</time>
      </trkpt>
      <trkpt lat="44.71696" lon="1.58131">
        <ele>305.36</ele>
        <time>2026-05-23T07:19:03Z</time>
      </trkpt>
      <trkpt lat="44.71691" lon="1.58129">
        <ele>305.84</ele>
        <time>2026-05-23T07:19:08Z</time>
      </trkpt>
      <trkpt lat="44.71682" lon="1.58124">
        <ele>306.32</ele>
        <time>2026-05-23T07:19:18Z</time>
      </trkpt>
      <trkpt lat="44.71668" lon="1.58116">
        <ele>308.72</ele>
        <time>2026-05-23T07:19:34Z</time>
      </trkpt>
      <trkpt lat="44.71654" lon="1.58108">
        <ele>311.12</ele>
        <time>2026-05-23T07:19:48Z</time>
      </trkpt>
      <trkpt lat="44.71651" lon="1.58105">
        <ele>311.6</ele>
        <time>2026-05-23T07:19:51Z</time>
      </trkpt>
      <trkpt lat="44.71636" lon="1.58092">
        <ele>313.05</ele>
        <time>2026-05-23T07:20:06Z</time>
      </trkpt>
      <trkpt lat="44.71628" lon="1.58078">
        <ele>316.41</ele>
        <time>2026-05-23T07:20:23Z</time>
      </trkpt>
      <trkpt lat="44.71612" lon="1.58069">
        <ele>320.26</ele>
        <time>2026-05-23T07:20:40Z</time>
      </trkpt>
      <trkpt lat="44.71604" lon="1.58064">
        <ele>321.22</ele>
        <time>2026-05-23T07:20:48Z</time>
      </trkpt>
      <trkpt lat="44.71587" lon="1.58056">
        <ele>322.66</ele>
        <time>2026-05-23T07:21:04Z</time>
      </trkpt>
      <trkpt lat="44.71574" lon="1.58046">
        <ele>325.54</ele>
        <time>2026-05-23T07:21:21Z</time>
      </trkpt>
      <trkpt lat="44.71559" lon="1.58039">
        <ele>328.43</ele>
        <time>2026-05-23T07:21:35Z</time>
      </trkpt>
      <trkpt lat="44.71542" lon="1.58036">
        <ele>329.39</ele>
        <time>2026-05-23T07:21:49Z</time>
      </trkpt>
      <trkpt lat="44.71529" lon="1.5803">
        <ele>329.87</ele>
        <time>2026-05-23T07:22:03Z</time>
      </trkpt>
      <trkpt lat="44.71516" lon="1.58021">
        <ele>330.35</ele>
        <time>2026-05-23T07:22:18Z</time>
      </trkpt>
      <trkpt lat="44.7151" lon="1.58018">
        <ele>330.83</ele>
        <time>2026-05-23T07:22:23Z</time>
      </trkpt>
      <trkpt lat="44.71501" lon="1.58012">
        <ele>331.79</ele>
        <time>2026-05-23T07:22:40Z</time>
      </trkpt>
      <trkpt lat="44.71499" lon="1.58008">
        <ele>332.75</ele>
        <time>2026-05-23T07:22:56Z</time>
      </trkpt>
      <trkpt lat="44.715" lon="1.58005">
        <ele>333.23</ele>
        <time>2026-05-23T07:22:59Z</time>
      </trkpt>
      <trkpt lat="44.71503" lon="1.57989">
        <ele>333.23</ele>
        <time>2026-05-23T07:23:12Z</time>
      </trkpt>
      <trkpt lat="44.71506" lon="1.57977">
        <ele>333.23</ele>
        <time>2026-05-23T07:23:24Z</time>
      </trkpt>
      <trkpt lat="44.71505" lon="1.57981">
        <ele>333.23</ele>
        <time>2026-05-23T07:23:32Z</time>
      </trkpt>
      <trkpt lat="44.71503" lon="1.57995">
        <ele>333.23</ele>
        <time>2026-05-23T07:23:47Z</time>
      </trkpt>
      <trkpt lat="44.71502" lon="1.57996">
        <ele>333.71</ele>
        <time>2026-05-23T07:24:10Z</time>
      </trkpt>
      <trkpt lat="44.71503" lon="1.57995">
        <ele>331.79</ele>
        <time>2026-05-23T07:24:43Z</time>
      </trkpt>
      <trkpt lat="44.71502" lon="1.57994">
        <ele>333.71</ele>
        <time>2026-05-23T07:25:07Z</time>
      </trkpt>
      <trkpt lat="44.71503" lon="1.57996">
        <ele>335.64</ele>
        <time>2026-05-23T07:25:36Z</time>
      </trkpt>
      <trkpt lat="44.71504" lon="1.57994">
        <ele>336.6</ele>
        <time>2026-05-23T07:26:07Z</time>
      </trkpt>
      <trkpt lat="44.71503" lon="1.57993">
        <ele>336.12</ele>
        <time>2026-05-23T07:26:28Z</time>
      </trkpt>
      <trkpt lat="44.71501" lon="1.57995">
        <ele>333.71</ele>
        <time>2026-05-23T07:26:56Z</time>
      </trkpt>
      <trkpt lat="44.715" lon="1.57996">
        <ele>333.23</ele>
        <time>2026-05-23T07:27:32Z</time>
      </trkpt>
      <trkpt lat="44.71501" lon="1.57995">
        <ele>332.27</ele>
        <time>2026-05-23T07:28:01Z</time>
      </trkpt>
      <trkpt lat="44.71501" lon="1.57996">
        <ele>333.71</ele>
        <time>2026-05-23T07:28:25Z</time>
      </trkpt>
      <trkpt lat="44.71502" lon="1.57995">
        <ele>333.71</ele>
        <time>2026-05-23T07:28:57Z</time>
      </trkpt>
      <trkpt lat="44.71502" lon="1.57995">
        <ele>330.35</ele>
        <time>2026-05-23T07:29:36Z</time>
      </trkpt>
      <trkpt lat="44.71501" lon="1.57997">
        <ele>331.31</ele>
        <time>2026-05-23T07:30:07Z</time>
      </trkpt>
      <trkpt lat="44.71502" lon="1.57995">
        <ele>333.71</ele>
        <time>2026-05-23T07:30:45Z</time>
      </trkpt>
      <trkpt lat="44.71502" lon="1.5799">
        <ele>337.08</ele>
        <time>2026-05-23T07:30:58Z</time>
      </trkpt>
      <trkpt lat="44.71502" lon="1.57987">
        <ele>337.08</ele>
        <time>2026-05-23T07:31:10Z</time>
      </trkpt>
      <trkpt lat="44.71504" lon="1.57982">
        <ele>336.6</ele>
        <time>2026-05-23T07:31:25Z</time>
      </trkpt>
      <trkpt lat="44.71505" lon="1.57968">
        <ele>334.68</ele>
        <time>2026-05-23T07:31:37Z</time>
      </trkpt>
      <trkpt lat="44.71505" lon="1.57967">
        <ele>334.68</ele>
        <time>2026-05-23T07:31:38Z</time>
      </trkpt>
      <trkpt lat="44.71505" lon="1.57964">
        <ele>334.68</ele>
        <time>2026-05-23T07:31:40Z</time>
      </trkpt>
      <trkpt lat="44.71509" lon="1.57944">
        <ele>333.71</ele>
        <time>2026-05-23T07:31:54Z</time>
      </trkpt>
      <trkpt lat="44.71515" lon="1.57923">
        <ele>331.79</ele>
        <time>2026-05-23T07:32:08Z</time>
      </trkpt>
      <trkpt lat="44.71518" lon="1.57905">
        <ele>331.31</ele>
        <time>2026-05-23T07:32:19Z</time>
      </trkpt>
      <trkpt lat="44.71523" lon="1.5788">
        <ele>331.31</ele>
        <time>2026-05-23T07:32:34Z</time>
      </trkpt>
      <trkpt lat="44.71528" lon="1.57863">
        <ele>330.83</ele>
        <time>2026-05-23T07:32:46Z</time>
      </trkpt>
      <trkpt lat="44.71533" lon="1.57838">
        <ele>330.83</ele>
        <time>2026-05-23T07:33:03Z</time>
      </trkpt>
      <trkpt lat="44.71538" lon="1.57812">
        <ele>329.87</ele>
        <time>2026-05-23T07:33:21Z</time>
      </trkpt>
      <trkpt lat="44.71546" lon="1.57791">
        <ele>328.91</ele>
        <time>2026-05-23T07:33:35Z</time>
      </trkpt>
      <trkpt lat="44.71553" lon="1.57771">
        <ele>327.95</ele>
        <time>2026-05-23T07:33:48Z</time>
      </trkpt>
      <trkpt lat="44.71562" lon="1.57747">
        <ele>327.95</ele>
        <time>2026-05-23T07:34:04Z</time>
      </trkpt>
      <trkpt lat="44.71574" lon="1.57729">
        <ele>327.47</ele>
        <time>2026-05-23T07:34:19Z</time>
      </trkpt>
      <trkpt lat="44.71586" lon="1.57715">
        <ele>327.95</ele>
        <time>2026-05-23T07:34:33Z</time>
      </trkpt>
      <trkpt lat="44.71601" lon="1.57698">
        <ele>326.5</ele>
        <time>2026-05-23T07:34:47Z</time>
      </trkpt>
      <trkpt lat="44.71615" lon="1.57679">
        <ele>328.43</ele>
        <time>2026-05-23T07:35:03Z</time>
      </trkpt>
      <trkpt lat="44.71629" lon="1.57662">
        <ele>329.39</ele>
        <time>2026-05-23T07:35:18Z</time>
      </trkpt>
      <trkpt lat="44.71649" lon="1.57632">
        <ele>326.02</ele>
        <time>2026-05-23T07:35:37Z</time>
      </trkpt>
      <trkpt lat="44.71654" lon="1.57621">
        <ele>324.58</ele>
        <time>2026-05-23T07:35:45Z</time>
      </trkpt>
      <trkpt lat="44.71667" lon="1.57598">
        <ele>322.18</ele>
        <time>2026-05-23T07:36:01Z</time>
      </trkpt>
      <trkpt lat="44.71669" lon="1.57573">
        <ele>321.22</ele>
        <time>2026-05-23T07:36:15Z</time>
      </trkpt>
      <trkpt lat="44.71678" lon="1.57551">
        <ele>318.33</ele>
        <time>2026-05-23T07:36:31Z</time>
      </trkpt>
      <trkpt lat="44.71689" lon="1.57531">
        <ele>316.41</ele>
        <time>2026-05-23T07:36:47Z</time>
      </trkpt>
      <trkpt lat="44.71701" lon="1.5751">
        <ele>314.49</ele>
        <time>2026-05-23T07:37:05Z</time>
      </trkpt>
      <trkpt lat="44.71718" lon="1.57496">
        <ele>312.09</ele>
        <time>2026-05-23T07:37:23Z</time>
      </trkpt>
      <trkpt lat="44.71735" lon="1.5749">
        <ele>311.12</ele>
        <time>2026-05-23T07:37:42Z</time>
      </trkpt>
      <trkpt lat="44.71729" lon="1.57481">
        <ele>311.6</ele>
        <time>2026-05-23T07:37:51Z</time>
      </trkpt>
      <trkpt lat="44.71726" lon="1.57472">
        <ele>312.09</ele>
        <time>2026-05-23T07:37:57Z</time>
      </trkpt>
      <trkpt lat="44.71732" lon="1.57453">
        <ele>311.6</ele>
        <time>2026-05-23T07:38:13Z</time>
      </trkpt>
      <trkpt lat="44.71748" lon="1.57439">
        <ele>307.28</ele>
        <time>2026-05-23T07:38:31Z</time>
      </trkpt>
      <trkpt lat="44.71752" lon="1.57436">
        <ele>305.84</ele>
        <time>2026-05-23T07:38:46Z</time>
      </trkpt>
      <trkpt lat="44.7176" lon="1.57431">
        <ele>304.88</ele>
        <time>2026-05-23T07:38:54Z</time>
      </trkpt>
      <trkpt lat="44.71775" lon="1.5742">
        <ele>306.32</ele>
        <time>2026-05-23T07:39:12Z</time>
      </trkpt>
      <trkpt lat="44.71785" lon="1.57403">
        <ele>306.32</ele>
        <time>2026-05-23T07:39:27Z</time>
      </trkpt>
      <trkpt lat="44.71787" lon="1.57396">
        <ele>305.84</ele>
        <time>2026-05-23T07:39:32Z</time>
      </trkpt>
      <trkpt lat="44.7179" lon="1.57387">
        <ele>305.36</ele>
        <time>2026-05-23T07:39:38Z</time>
      </trkpt>
      <trkpt lat="44.71793" lon="1.57381">
        <ele>305.36</ele>
        <time>2026-05-23T07:39:44Z</time>
      </trkpt>
      <trkpt lat="44.71808" lon="1.57367">
        <ele>305.36</ele>
        <time>2026-05-23T07:40:02Z</time>
      </trkpt>
      <trkpt lat="44.71816" lon="1.57361">
        <ele>304.88</ele>
        <time>2026-05-23T07:40:10Z</time>
      </trkpt>
      <trkpt lat="44.71824" lon="1.57354">
        <ele>303.43</ele>
        <time>2026-05-23T07:40:21Z</time>
      </trkpt>
      <trkpt lat="44.71836" lon="1.57337">
        <ele>302.47</ele>
        <time>2026-05-23T07:40:37Z</time>
      </trkpt>
      <trkpt lat="44.71834" lon="1.57311">
        <ele>304.39</ele>
        <time>2026-05-23T07:40:51Z</time>
      </trkpt>
      <trkpt lat="44.71831" lon="1.5729">
        <ele>306.8</ele>
        <time>2026-05-23T07:41:03Z</time>
      </trkpt>
      <trkpt lat="44.7183" lon="1.57274">
        <ele>308.72</ele>
        <time>2026-05-23T07:41:14Z</time>
      </trkpt>
      <trkpt lat="44.71827" lon="1.57253">
        <ele>311.6</ele>
        <time>2026-05-23T07:41:28Z</time>
      </trkpt>
      <trkpt lat="44.71825" lon="1.5724">
        <ele>312.57</ele>
        <time>2026-05-23T07:41:36Z</time>
      </trkpt>
      <trkpt lat="44.71816" lon="1.57224">
        <ele>314.01</ele>
        <time>2026-05-23T07:41:49Z</time>
      </trkpt>
      <trkpt lat="44.71806" lon="1.57213">
        <ele>314.49</ele>
        <time>2026-05-23T07:42:00Z</time>
      </trkpt>
      <trkpt lat="44.71797" lon="1.57202">
        <ele>315.45</ele>
        <time>2026-05-23T07:42:11Z</time>
      </trkpt>
      <trkpt lat="44.71795" lon="1.572">
        <ele>315.45</ele>
        <time>2026-05-23T07:42:13Z</time>
      </trkpt>
      <trkpt lat="44.71781" lon="1.5719">
        <ele>317.37</ele>
        <time>2026-05-23T07:42:26Z</time>
      </trkpt>
      <trkpt lat="44.71767" lon="1.57176">
        <ele>319.78</ele>
        <time>2026-05-23T07:42:40Z</time>
      </trkpt>
      <trkpt lat="44.71756" lon="1.57165">
        <ele>321.22</ele>
        <time>2026-05-23T07:42:51Z</time>
      </trkpt>
      <trkpt lat="44.71744" lon="1.57151">
        <ele>322.66</ele>
        <time>2026-05-23T07:43:04Z</time>
      </trkpt>
      <trkpt lat="44.71733" lon="1.57135">
        <ele>324.1</ele>
        <time>2026-05-23T07:43:17Z</time>
      </trkpt>
      <trkpt lat="44.71722" lon="1.57117">
        <ele>325.54</ele>
        <time>2026-05-23T07:43:31Z</time>
      </trkpt>
      <trkpt lat="44.71712" lon="1.57103">
        <ele>326.99</ele>
        <time>2026-05-23T07:43:46Z</time>
      </trkpt>
      <trkpt lat="44.71703" lon="1.57087">
        <ele>327.95</ele>
        <time>2026-05-23T07:44:00Z</time>
      </trkpt>
      <trkpt lat="44.71695" lon="1.57073">
        <ele>328.43</ele>
        <time>2026-05-23T07:44:12Z</time>
      </trkpt>
      <trkpt lat="44.71694" lon="1.57072">
        <ele>328.43</ele>
        <time>2026-05-23T07:44:14Z</time>
      </trkpt>
      <trkpt lat="44.7169" lon="1.57064">
        <ele>327.95</ele>
        <time>2026-05-23T07:44:18Z</time>
      </trkpt>
      <trkpt lat="44.7168" lon="1.57047">
        <ele>327.47</ele>
        <time>2026-05-23T07:44:31Z</time>
      </trkpt>
      <trkpt lat="44.71677" lon="1.57043">
        <ele>327.47</ele>
        <time>2026-05-23T07:44:34Z</time>
      </trkpt>
      <trkpt lat="44.71671" lon="1.57031">
        <ele>327.47</ele>
        <time>2026-05-23T07:44:43Z</time>
      </trkpt>
      <trkpt lat="44.71668" lon="1.57024">
        <ele>327.47</ele>
        <time>2026-05-23T07:44:47Z</time>
      </trkpt>
      <trkpt lat="44.71656" lon="1.57005">
        <ele>329.39</ele>
        <time>2026-05-23T07:45:03Z</time>
      </trkpt>
      <trkpt lat="44.71647" lon="1.56987">
        <ele>331.79</ele>
        <time>2026-05-23T07:45:16Z</time>
      </trkpt>
      <trkpt lat="44.71643" lon="1.56962">
        <ele>334.68</ele>
        <time>2026-05-23T07:45:32Z</time>
      </trkpt>
      <trkpt lat="44.71634" lon="1.56945">
        <ele>335.16</ele>
        <time>2026-05-23T07:45:46Z</time>
      </trkpt>
      <trkpt lat="44.71627" lon="1.56935">
        <ele>335.16</ele>
        <time>2026-05-23T07:45:54Z</time>
      </trkpt>
      <trkpt lat="44.7161" lon="1.56915">
        <ele>335.64</ele>
        <time>2026-05-23T07:46:10Z</time>
      </trkpt>
      <trkpt lat="44.71599" lon="1.56922">
        <ele>336.6</ele>
        <time>2026-05-23T07:46:23Z</time>
      </trkpt>
      <trkpt lat="44.71587" lon="1.56935">
        <ele>339.48</ele>
        <time>2026-05-23T07:46:38Z</time>
      </trkpt>
      <trkpt lat="44.71587" lon="1.56936">
        <ele>339.96</ele>
        <time>2026-05-23T07:46:39Z</time>
      </trkpt>
      <trkpt lat="44.71582" lon="1.56942">
        <ele>341.41</ele>
        <time>2026-05-23T07:46:45Z</time>
      </trkpt>
      <trkpt lat="44.71568" lon="1.56957">
        <ele>344.29</ele>
        <time>2026-05-23T07:47:00Z</time>
      </trkpt>
      <trkpt lat="44.71555" lon="1.56971">
        <ele>348.13</ele>
        <time>2026-05-23T07:47:15Z</time>
      </trkpt>
      <trkpt lat="44.71548" lon="1.56988">
        <ele>349.58</ele>
        <time>2026-05-23T07:47:26Z</time>
      </trkpt>
      <trkpt lat="44.71546" lon="1.56997">
        <ele>350.06</ele>
        <time>2026-05-23T07:47:32Z</time>
      </trkpt>
      <trkpt lat="44.71543" lon="1.57004">
        <ele>350.54</ele>
        <time>2026-05-23T07:47:36Z</time>
      </trkpt>
      <trkpt lat="44.71538" lon="1.57021">
        <ele>352.94</ele>
        <time>2026-05-23T07:47:49Z</time>
      </trkpt>
      <trkpt lat="44.71537" lon="1.57021">
        <ele>353.42</ele>
        <time>2026-05-23T07:47:55Z</time>
      </trkpt>
      <trkpt lat="44.71538" lon="1.57019">
        <ele>353.42</ele>
        <time>2026-05-23T07:47:57Z</time>
      </trkpt>
      <trkpt lat="44.71543" lon="1.5701">
        <ele>352.94</ele>
        <time>2026-05-23T07:48:06Z</time>
      </trkpt>
      <trkpt lat="44.71545" lon="1.57003">
        <ele>351.98</ele>
        <time>2026-05-23T07:48:11Z</time>
      </trkpt>
      <trkpt lat="44.71547" lon="1.5699">
        <ele>352.46</ele>
        <time>2026-05-23T07:48:21Z</time>
      </trkpt>
      <trkpt lat="44.71548" lon="1.56995">
        <ele>351.98</ele>
        <time>2026-05-23T07:48:26Z</time>
      </trkpt>
      <trkpt lat="44.71544" lon="1.57014">
        <ele>351.98</ele>
        <time>2026-05-23T07:48:37Z</time>
      </trkpt>
      <trkpt lat="44.71532" lon="1.5703">
        <ele>352.94</ele>
        <time>2026-05-23T07:48:51Z</time>
      </trkpt>
      <trkpt lat="44.7152" lon="1.57037">
        <ele>353.9</ele>
        <time>2026-05-23T07:49:03Z</time>
      </trkpt>
      <trkpt lat="44.71506" lon="1.57046">
        <ele>354.38</ele>
        <time>2026-05-23T07:49:17Z</time>
      </trkpt>
      <trkpt lat="44.71495" lon="1.57052">
        <ele>355.83</ele>
        <time>2026-05-23T07:49:28Z</time>
      </trkpt>
      <trkpt lat="44.7148" lon="1.57065">
        <ele>357.27</ele>
        <time>2026-05-23T07:49:43Z</time>
      </trkpt>
      <trkpt lat="44.71467" lon="1.5708">
        <ele>358.71</ele>
        <time>2026-05-23T07:49:58Z</time>
      </trkpt>
      <trkpt lat="44.71458" lon="1.57093">
        <ele>359.19</ele>
        <time>2026-05-23T07:50:09Z</time>
      </trkpt>
      <trkpt lat="44.71448" lon="1.57106">
        <ele>360.63</ele>
        <time>2026-05-23T07:50:22Z</time>
      </trkpt>
      <trkpt lat="44.71442" lon="1.57111">
        <ele>360.63</ele>
        <time>2026-05-23T07:50:31Z</time>
      </trkpt>
      <trkpt lat="44.71438" lon="1.57116">
        <ele>360.63</ele>
        <time>2026-05-23T07:50:37Z</time>
      </trkpt>
      <trkpt lat="44.71427" lon="1.57129">
        <ele>360.63</ele>
        <time>2026-05-23T07:50:51Z</time>
      </trkpt>
      <trkpt lat="44.71417" lon="1.5714">
        <ele>361.59</ele>
        <time>2026-05-23T07:51:03Z</time>
      </trkpt>
      <trkpt lat="44.71411" lon="1.57148">
        <ele>362.55</ele>
        <time>2026-05-23T07:51:18Z</time>
      </trkpt>
      <trkpt lat="44.71404" lon="1.57157">
        <ele>363.52</ele>
        <time>2026-05-23T07:51:33Z</time>
      </trkpt>
      <trkpt lat="44.71394" lon="1.57167">
        <ele>363.04</ele>
        <time>2026-05-23T07:51:45Z</time>
      </trkpt>
      <trkpt lat="44.71381" lon="1.5718">
        <ele>362.55</ele>
        <time>2026-05-23T07:51:58Z</time>
      </trkpt>
      <trkpt lat="44.71378" lon="1.57185">
        <ele>362.07</ele>
        <time>2026-05-23T07:52:03Z</time>
      </trkpt>
      <trkpt lat="44.71365" lon="1.57201">
        <ele>361.59</ele>
        <time>2026-05-23T07:52:18Z</time>
      </trkpt>
      <trkpt lat="44.71356" lon="1.57212">
        <ele>361.11</ele>
        <time>2026-05-23T07:52:31Z</time>
      </trkpt>
      <trkpt lat="44.7134" lon="1.57231">
        <ele>360.63</ele>
        <time>2026-05-23T07:52:48Z</time>
      </trkpt>
      <trkpt lat="44.71332" lon="1.57244">
        <ele>360.63</ele>
        <time>2026-05-23T07:52:58Z</time>
      </trkpt>
      <trkpt lat="44.71331" lon="1.57246">
        <ele>360.63</ele>
        <time>2026-05-23T07:53:00Z</time>
      </trkpt>
      <trkpt lat="44.71319" lon="1.57265">
        <ele>360.63</ele>
        <time>2026-05-23T07:53:14Z</time>
      </trkpt>
      <trkpt lat="44.71311" lon="1.57288">
        <ele>359.19</ele>
        <time>2026-05-23T07:53:28Z</time>
      </trkpt>
      <trkpt lat="44.71306" lon="1.57306">
        <ele>358.71</ele>
        <time>2026-05-23T07:53:40Z</time>
      </trkpt>
      <trkpt lat="44.71301" lon="1.57322">
        <ele>357.27</ele>
        <time>2026-05-23T07:53:52Z</time>
      </trkpt>
      <trkpt lat="44.71297" lon="1.57341">
        <ele>356.31</ele>
        <time>2026-05-23T07:54:04Z</time>
      </trkpt>
      <trkpt lat="44.7129" lon="1.57368">
        <ele>355.83</ele>
        <time>2026-05-23T07:54:18Z</time>
      </trkpt>
      <trkpt lat="44.71287" lon="1.5739">
        <ele>355.34</ele>
        <time>2026-05-23T07:54:32Z</time>
      </trkpt>
      <trkpt lat="44.7128" lon="1.57412">
        <ele>356.31</ele>
        <time>2026-05-23T07:54:46Z</time>
      </trkpt>
      <trkpt lat="44.71272" lon="1.57423">
        <ele>356.31</ele>
        <time>2026-05-23T07:54:56Z</time>
      </trkpt>
      <trkpt lat="44.71267" lon="1.57428">
        <ele>356.31</ele>
        <time>2026-05-23T07:55:02Z</time>
      </trkpt>
      <trkpt lat="44.71258" lon="1.57434">
        <ele>356.31</ele>
        <time>2026-05-23T07:55:12Z</time>
      </trkpt>
      <trkpt lat="44.7125" lon="1.57439">
        <ele>356.31</ele>
        <time>2026-05-23T07:55:22Z</time>
      </trkpt>
      <trkpt lat="44.71249" lon="1.5744">
        <ele>356.31</ele>
        <time>2026-05-23T07:55:23Z</time>
      </trkpt>
      <trkpt lat="44.71244" lon="1.57446">
        <ele>355.83</ele>
        <time>2026-05-23T07:55:35Z</time>
      </trkpt>
      <trkpt lat="44.71231" lon="1.5745">
        <ele>355.83</ele>
        <time>2026-05-23T07:55:48Z</time>
      </trkpt>
      <trkpt lat="44.71217" lon="1.57447">
        <ele>355.34</ele>
        <time>2026-05-23T07:55:59Z</time>
      </trkpt>
      <trkpt lat="44.71206" lon="1.5744">
        <ele>354.38</ele>
        <time>2026-05-23T07:56:11Z</time>
      </trkpt>
      <trkpt lat="44.71204" lon="1.57439">
        <ele>354.38</ele>
        <time>2026-05-23T07:56:13Z</time>
      </trkpt>
      <trkpt lat="44.71203" lon="1.57438">
        <ele>353.9</ele>
        <time>2026-05-23T07:56:14Z</time>
      </trkpt>
      <trkpt lat="44.71202" lon="1.57436">
        <ele>353.9</ele>
        <time>2026-05-23T07:56:15Z</time>
      </trkpt>
      <trkpt lat="44.71201" lon="1.57435">
        <ele>353.9</ele>
        <time>2026-05-23T07:56:16Z</time>
      </trkpt>
      <trkpt lat="44.7119" lon="1.57424">
        <ele>351.98</ele>
        <time>2026-05-23T07:56:29Z</time>
      </trkpt>
      <trkpt lat="44.71177" lon="1.57415">
        <ele>351.02</ele>
        <time>2026-05-23T07:56:41Z</time>
      </trkpt>
      <trkpt lat="44.71166" lon="1.57407">
        <ele>351.02</ele>
        <time>2026-05-23T07:56:52Z</time>
      </trkpt>
      <trkpt lat="44.71157" lon="1.57399">
        <ele>351.02</ele>
        <time>2026-05-23T07:57:04Z</time>
      </trkpt>
      <trkpt lat="44.7115" lon="1.57392">
        <ele>351.02</ele>
        <time>2026-05-23T07:57:12Z</time>
      </trkpt>
      <trkpt lat="44.71142" lon="1.57385">
        <ele>350.06</ele>
        <time>2026-05-23T07:57:20Z</time>
      </trkpt>
      <trkpt lat="44.71131" lon="1.57377">
        <ele>350.06</ele>
        <time>2026-05-23T07:57:31Z</time>
      </trkpt>
      <trkpt lat="44.71127" lon="1.57375">
        <ele>350.06</ele>
        <time>2026-05-23T07:57:35Z</time>
      </trkpt>
      <trkpt lat="44.71126" lon="1.57374">
        <ele>350.06</ele>
        <time>2026-05-23T07:57:36Z</time>
      </trkpt>
      <trkpt lat="44.71124" lon="1.57372">
        <ele>350.06</ele>
        <time>2026-05-23T07:57:37Z</time>
      </trkpt>
      <trkpt lat="44.71122" lon="1.57371">
        <ele>350.06</ele>
        <time>2026-05-23T07:57:39Z</time>
      </trkpt>
      <trkpt lat="44.71121" lon="1.57371">
        <ele>350.06</ele>
        <time>2026-05-23T07:57:40Z</time>
      </trkpt>
      <trkpt lat="44.7112" lon="1.57372">
        <ele>350.06</ele>
        <time>2026-05-23T07:57:41Z</time>
      </trkpt>
      <trkpt lat="44.71119" lon="1.57371">
        <ele>350.06</ele>
        <time>2026-05-23T07:57:42Z</time>
      </trkpt>
      <trkpt lat="44.71118" lon="1.5737">
        <ele>350.06</ele>
        <time>2026-05-23T07:57:43Z</time>
      </trkpt>
      <trkpt lat="44.71109" lon="1.57365">
        <ele>350.06</ele>
        <time>2026-05-23T07:57:52Z</time>
      </trkpt>
      <trkpt lat="44.71108" lon="1.57363">
        <ele>350.54</ele>
        <time>2026-05-23T07:57:53Z</time>
      </trkpt>
      <trkpt lat="44.71107" lon="1.57362">
        <ele>350.54</ele>
        <time>2026-05-23T07:57:54Z</time>
      </trkpt>
      <trkpt lat="44.71106" lon="1.57362">
        <ele>350.54</ele>
        <time>2026-05-23T07:57:55Z</time>
      </trkpt>
      <trkpt lat="44.71101" lon="1.5736">
        <ele>350.54</ele>
        <time>2026-05-23T07:58:00Z</time>
      </trkpt>
      <trkpt lat="44.71099" lon="1.57358">
        <ele>350.54</ele>
        <time>2026-05-23T07:58:01Z</time>
      </trkpt>
      <trkpt lat="44.71089" lon="1.57353">
        <ele>349.58</ele>
        <time>2026-05-23T07:58:10Z</time>
      </trkpt>
      <trkpt lat="44.71077" lon="1.57345">
        <ele>349.1</ele>
        <time>2026-05-23T07:58:20Z</time>
      </trkpt>
      <trkpt lat="44.71076" lon="1.57343">
        <ele>349.1</ele>
        <time>2026-05-23T07:58:21Z</time>
      </trkpt>
      <trkpt lat="44.71074" lon="1.57341">
        <ele>349.1</ele>
        <time>2026-05-23T07:58:22Z</time>
      </trkpt>
      <trkpt lat="44.71065" lon="1.57331">
        <ele>349.1</ele>
        <time>2026-05-23T07:58:32Z</time>
      </trkpt>
      <trkpt lat="44.71054" lon="1.57323">
        <ele>349.1</ele>
        <time>2026-05-23T07:58:42Z</time>
      </trkpt>
      <trkpt lat="44.71038" lon="1.57311">
        <ele>348.13</ele>
        <time>2026-05-23T07:58:55Z</time>
      </trkpt>
      <trkpt lat="44.71027" lon="1.57303">
        <ele>347.65</ele>
        <time>2026-05-23T07:59:05Z</time>
      </trkpt>
      <trkpt lat="44.71013" lon="1.57295">
        <ele>347.17</ele>
        <time>2026-05-23T07:59:17Z</time>
      </trkpt>
      <trkpt lat="44.71007" lon="1.57292">
        <ele>347.65</ele>
        <time>2026-05-23T07:59:23Z</time>
      </trkpt>
      <trkpt lat="44.71006" lon="1.57292">
        <ele>347.65</ele>
        <time>2026-05-23T07:59:24Z</time>
      </trkpt>
      <trkpt lat="44.71005" lon="1.57291">
        <ele>347.65</ele>
        <time>2026-05-23T07:59:25Z</time>
      </trkpt>
      <trkpt lat="44.71003" lon="1.5729">
        <ele>348.13</ele>
        <time>2026-05-23T07:59:26Z</time>
      </trkpt>
      <trkpt lat="44.71001" lon="1.57289">
        <ele>348.13</ele>
        <time>2026-05-23T07:59:27Z</time>
      </trkpt>
      <trkpt lat="44.71" lon="1.57287">
        <ele>348.13</ele>
        <time>2026-05-23T07:59:28Z</time>
      </trkpt>
      <trkpt lat="44.70996" lon="1.57283">
        <ele>348.13</ele>
        <time>2026-05-23T07:59:31Z</time>
      </trkpt>
      <trkpt lat="44.70994" lon="1.57282">
        <ele>348.13</ele>
        <time>2026-05-23T07:59:32Z</time>
      </trkpt>
      <trkpt lat="44.70983" lon="1.57273">
        <ele>348.13</ele>
        <time>2026-05-23T07:59:43Z</time>
      </trkpt>
      <trkpt lat="44.70969" lon="1.57262">
        <ele>348.13</ele>
        <time>2026-05-23T07:59:55Z</time>
      </trkpt>
      <trkpt lat="44.70957" lon="1.57246">
        <ele>346.21</ele>
        <time>2026-05-23T08:00:08Z</time>
      </trkpt>
      <trkpt lat="44.70947" lon="1.5723">
        <ele>344.77</ele>
        <time>2026-05-23T08:00:20Z</time>
      </trkpt>
      <trkpt lat="44.70942" lon="1.57223">
        <ele>344.29</ele>
        <time>2026-05-23T08:00:27Z</time>
      </trkpt>
      <trkpt lat="44.7094" lon="1.57216">
        <ele>343.81</ele>
        <time>2026-05-23T08:00:31Z</time>
      </trkpt>
      <trkpt lat="44.70939" lon="1.57215">
        <ele>343.81</ele>
        <time>2026-05-23T08:00:32Z</time>
      </trkpt>
      <trkpt lat="44.70936" lon="1.57205">
        <ele>343.33</ele>
        <time>2026-05-23T08:00:39Z</time>
      </trkpt>
      <trkpt lat="44.7093" lon="1.57185">
        <ele>343.81</ele>
        <time>2026-05-23T08:00:51Z</time>
      </trkpt>
      <trkpt lat="44.70929" lon="1.57184">
        <ele>344.29</ele>
        <time>2026-05-23T08:00:52Z</time>
      </trkpt>
      <trkpt lat="44.70929" lon="1.57182">
        <ele>344.29</ele>
        <time>2026-05-23T08:00:53Z</time>
      </trkpt>
      <trkpt lat="44.70929" lon="1.5718">
        <ele>344.29</ele>
        <time>2026-05-23T08:00:54Z</time>
      </trkpt>
      <trkpt lat="44.70928" lon="1.57172">
        <ele>345.25</ele>
        <time>2026-05-23T08:00:59Z</time>
      </trkpt>
      <trkpt lat="44.70927" lon="1.57171">
        <ele>345.25</ele>
        <time>2026-05-23T08:01:00Z</time>
      </trkpt>
      <trkpt lat="44.70927" lon="1.57169">
        <ele>345.25</ele>
        <time>2026-05-23T08:01:01Z</time>
      </trkpt>
      <trkpt lat="44.70927" lon="1.57167">
        <ele>345.25</ele>
        <time>2026-05-23T08:01:02Z</time>
      </trkpt>
      <trkpt lat="44.70927" lon="1.57165">
        <ele>345.25</ele>
        <time>2026-05-23T08:01:03Z</time>
      </trkpt>
      <trkpt lat="44.70923" lon="1.57147">
        <ele>344.77</ele>
        <time>2026-05-23T08:01:16Z</time>
      </trkpt>
      <trkpt lat="44.7092" lon="1.57134">
        <ele>344.29</ele>
        <time>2026-05-23T08:01:25Z</time>
      </trkpt>
      <trkpt lat="44.70919" lon="1.57131">
        <ele>344.29</ele>
        <time>2026-05-23T08:01:27Z</time>
      </trkpt>
      <trkpt lat="44.70919" lon="1.5713">
        <ele>344.29</ele>
        <time>2026-05-23T08:01:28Z</time>
      </trkpt>
      <trkpt lat="44.70916" lon="1.57108">
        <ele>345.25</ele>
        <time>2026-05-23T08:01:41Z</time>
      </trkpt>
      <trkpt lat="44.70914" lon="1.571">
        <ele>345.73</ele>
        <time>2026-05-23T08:01:46Z</time>
      </trkpt>
      <trkpt lat="44.70907" lon="1.57077">
        <ele>344.77</ele>
        <time>2026-05-23T08:02:00Z</time>
      </trkpt>
      <trkpt lat="44.709" lon="1.57052">
        <ele>342.85</ele>
        <time>2026-05-23T08:02:13Z</time>
      </trkpt>
      <trkpt lat="44.70898" lon="1.57045">
        <ele>341.89</ele>
        <time>2026-05-23T08:02:18Z</time>
      </trkpt>
      <trkpt lat="44.70897" lon="1.57043">
        <ele>341.89</ele>
        <time>2026-05-23T08:02:19Z</time>
      </trkpt>
      <trkpt lat="44.70896" lon="1.57042">
        <ele>341.41</ele>
        <time>2026-05-23T08:02:20Z</time>
      </trkpt>
      <trkpt lat="44.70895" lon="1.5704">
        <ele>341.41</ele>
        <time>2026-05-23T08:02:21Z</time>
      </trkpt>
      <trkpt lat="44.70895" lon="1.57037">
        <ele>340.92</ele>
        <time>2026-05-23T08:02:22Z</time>
      </trkpt>
      <trkpt lat="44.70894" lon="1.57035">
        <ele>340.92</ele>
        <time>2026-05-23T08:02:23Z</time>
      </trkpt>
      <trkpt lat="44.70894" lon="1.57033">
        <ele>340.44</ele>
        <time>2026-05-23T08:02:24Z</time>
      </trkpt>
      <trkpt lat="44.70893" lon="1.57031">
        <ele>340.44</ele>
        <time>2026-05-23T08:02:25Z</time>
      </trkpt>
      <trkpt lat="44.70892" lon="1.57029">
        <ele>339.96</ele>
        <time>2026-05-23T08:02:27Z</time>
      </trkpt>
      <trkpt lat="44.70891" lon="1.57028">
        <ele>339.96</ele>
        <time>2026-05-23T08:02:28Z</time>
      </trkpt>
      <trkpt lat="44.7089" lon="1.57027">
        <ele>339.48</ele>
        <time>2026-05-23T08:02:29Z</time>
      </trkpt>
      <trkpt lat="44.70889" lon="1.57026">
        <ele>339.48</ele>
        <time>2026-05-23T08:02:30Z</time>
      </trkpt>
      <trkpt lat="44.70889" lon="1.57024">
        <ele>339.48</ele>
        <time>2026-05-23T08:02:31Z</time>
      </trkpt>
      <trkpt lat="44.70888" lon="1.57022">
        <ele>339.48</ele>
        <time>2026-05-23T08:02:32Z</time>
      </trkpt>
      <trkpt lat="44.70888" lon="1.57019">
        <ele>339.48</ele>
        <time>2026-05-23T08:02:33Z</time>
      </trkpt>
      <trkpt lat="44.70888" lon="1.57017">
        <ele>339.48</ele>
        <time>2026-05-23T08:02:34Z</time>
      </trkpt>
      <trkpt lat="44.70886" lon="1.57011">
        <ele>339</ele>
        <time>2026-05-23T08:02:38Z</time>
      </trkpt>
      <trkpt lat="44.70886" lon="1.5701">
        <ele>339</ele>
        <time>2026-05-23T08:02:39Z</time>
      </trkpt>
      <trkpt lat="44.70881" lon="1.56986">
        <ele>339.48</ele>
        <time>2026-05-23T08:02:53Z</time>
      </trkpt>
      <trkpt lat="44.70877" lon="1.56965">
        <ele>340.92</ele>
        <time>2026-05-23T08:03:05Z</time>
      </trkpt>
      <trkpt lat="44.70875" lon="1.56945">
        <ele>341.89</ele>
        <time>2026-05-23T08:03:19Z</time>
      </trkpt>
      <trkpt lat="44.70874" lon="1.56922">
        <ele>343.81</ele>
        <time>2026-05-23T08:03:33Z</time>
      </trkpt>
      <trkpt lat="44.70873" lon="1.56897">
        <ele>344.77</ele>
        <time>2026-05-23T08:03:47Z</time>
      </trkpt>
      <trkpt lat="44.70872" lon="1.56879">
        <ele>345.25</ele>
        <time>2026-05-23T08:03:59Z</time>
      </trkpt>
      <trkpt lat="44.70871" lon="1.56862">
        <ele>345.73</ele>
        <time>2026-05-23T08:04:09Z</time>
      </trkpt>
      <trkpt lat="44.70871" lon="1.5686">
        <ele>345.73</ele>
        <time>2026-05-23T08:04:10Z</time>
      </trkpt>
      <trkpt lat="44.70871" lon="1.56857">
        <ele>346.21</ele>
        <time>2026-05-23T08:04:11Z</time>
      </trkpt>
      <trkpt lat="44.70871" lon="1.56855">
        <ele>346.21</ele>
        <time>2026-05-23T08:04:12Z</time>
      </trkpt>
      <trkpt lat="44.70869" lon="1.56834">
        <ele>347.65</ele>
        <time>2026-05-23T08:04:26Z</time>
      </trkpt>
      <trkpt lat="44.70867" lon="1.56813">
        <ele>349.58</ele>
        <time>2026-05-23T08:04:38Z</time>
      </trkpt>
      <trkpt lat="44.70866" lon="1.56795">
        <ele>350.06</ele>
        <time>2026-05-23T08:04:49Z</time>
      </trkpt>
      <trkpt lat="44.70865" lon="1.56774">
        <ele>351.5</ele>
        <time>2026-05-23T08:05:02Z</time>
      </trkpt>
      <trkpt lat="44.70865" lon="1.56745">
        <ele>351.98</ele>
        <time>2026-05-23T08:05:18Z</time>
      </trkpt>
      <trkpt lat="44.7086" lon="1.56719">
        <ele>352.94</ele>
        <time>2026-05-23T08:05:34Z</time>
      </trkpt>
      <trkpt lat="44.70857" lon="1.567">
        <ele>352.94</ele>
        <time>2026-05-23T08:05:46Z</time>
      </trkpt>
      <trkpt lat="44.70847" lon="1.56676">
        <ele>352.94</ele>
        <time>2026-05-23T08:06:01Z</time>
      </trkpt>
      <trkpt lat="44.70835" lon="1.56659">
        <ele>352.94</ele>
        <time>2026-05-23T08:06:15Z</time>
      </trkpt>
      <trkpt lat="44.70835" lon="1.56657">
        <ele>352.46</ele>
        <time>2026-05-23T08:06:16Z</time>
      </trkpt>
      <trkpt lat="44.70834" lon="1.56655">
        <ele>352.46</ele>
        <time>2026-05-23T08:06:17Z</time>
      </trkpt>
      <trkpt lat="44.70834" lon="1.56653">
        <ele>352.46</ele>
        <time>2026-05-23T08:06:18Z</time>
      </trkpt>
      <trkpt lat="44.70833" lon="1.56652">
        <ele>352.46</ele>
        <time>2026-05-23T08:06:19Z</time>
      </trkpt>
      <trkpt lat="44.7083" lon="1.56648">
        <ele>351.98</ele>
        <time>2026-05-23T08:06:23Z</time>
      </trkpt>
      <trkpt lat="44.70829" lon="1.56646">
        <ele>351.98</ele>
        <time>2026-05-23T08:06:24Z</time>
      </trkpt>
      <trkpt lat="44.70828" lon="1.56645">
        <ele>351.98</ele>
        <time>2026-05-23T08:06:25Z</time>
      </trkpt>
      <trkpt lat="44.70817" lon="1.56623">
        <ele>351.5</ele>
        <time>2026-05-23T08:06:40Z</time>
      </trkpt>
      <trkpt lat="44.70815" lon="1.56619">
        <ele>351.98</ele>
        <time>2026-05-23T08:06:43Z</time>
      </trkpt>
      <trkpt lat="44.70814" lon="1.56618">
        <ele>351.98</ele>
        <time>2026-05-23T08:06:44Z</time>
      </trkpt>
      <trkpt lat="44.70803" lon="1.56598">
        <ele>352.94</ele>
        <time>2026-05-23T08:06:57Z</time>
      </trkpt>
      <trkpt lat="44.70795" lon="1.56579">
        <ele>352.94</ele>
        <time>2026-05-23T08:07:11Z</time>
      </trkpt>
      <trkpt lat="44.70784" lon="1.56551">
        <ele>353.9</ele>
        <time>2026-05-23T08:07:30Z</time>
      </trkpt>
      <trkpt lat="44.70777" lon="1.56521">
        <ele>355.34</ele>
        <time>2026-05-23T08:07:48Z</time>
      </trkpt>
      <trkpt lat="44.70774" lon="1.5649">
        <ele>355.83</ele>
        <time>2026-05-23T08:08:08Z</time>
      </trkpt>
      <trkpt lat="44.70772" lon="1.56485">
        <ele>355.83</ele>
        <time>2026-05-23T08:08:10Z</time>
      </trkpt>
      <trkpt lat="44.70771" lon="1.56482">
        <ele>356.31</ele>
        <time>2026-05-23T08:08:11Z</time>
      </trkpt>
      <trkpt lat="44.70766" lon="1.5646">
        <ele>359.19</ele>
        <time>2026-05-23T08:08:26Z</time>
      </trkpt>
      <trkpt lat="44.70757" lon="1.5643">
        <ele>360.15</ele>
        <time>2026-05-23T08:08:44Z</time>
      </trkpt>
      <trkpt lat="44.70746" lon="1.56402">
        <ele>361.11</ele>
        <time>2026-05-23T08:09:04Z</time>
      </trkpt>
      <trkpt lat="44.70738" lon="1.56387">
        <ele>362.55</ele>
        <time>2026-05-23T08:09:14Z</time>
      </trkpt>
      <trkpt lat="44.7073" lon="1.56372">
        <ele>365.44</ele>
        <time>2026-05-23T08:09:27Z</time>
      </trkpt>
      <trkpt lat="44.70718" lon="1.5636">
        <ele>368.32</ele>
        <time>2026-05-23T08:09:40Z</time>
      </trkpt>
      <trkpt lat="44.70716" lon="1.56358">
        <ele>368.8</ele>
        <time>2026-05-23T08:09:43Z</time>
      </trkpt>
      <trkpt lat="44.70715" lon="1.56356">
        <ele>368.8</ele>
        <time>2026-05-23T08:09:44Z</time>
      </trkpt>
      <trkpt lat="44.70714" lon="1.56355">
        <ele>369.28</ele>
        <time>2026-05-23T08:09:45Z</time>
      </trkpt>
      <trkpt lat="44.70709" lon="1.56351">
        <ele>370.24</ele>
        <time>2026-05-23T08:09:51Z</time>
      </trkpt>
      <trkpt lat="44.70708" lon="1.5635">
        <ele>370.73</ele>
        <time>2026-05-23T08:09:52Z</time>
      </trkpt>
      <trkpt lat="44.70698" lon="1.56336">
        <ele>371.69</ele>
        <time>2026-05-23T08:10:05Z</time>
      </trkpt>
      <trkpt lat="44.70687" lon="1.56326">
        <ele>373.13</ele>
        <time>2026-05-23T08:10:18Z</time>
      </trkpt>
      <trkpt lat="44.70685" lon="1.56324">
        <ele>373.61</ele>
        <time>2026-05-23T08:10:20Z</time>
      </trkpt>
      <trkpt lat="44.70684" lon="1.56322">
        <ele>373.61</ele>
        <time>2026-05-23T08:10:21Z</time>
      </trkpt>
      <trkpt lat="44.70683" lon="1.56321">
        <ele>374.09</ele>
        <time>2026-05-23T08:10:22Z</time>
      </trkpt>
      <trkpt lat="44.70666" lon="1.5631">
        <ele>375.05</ele>
        <time>2026-05-23T08:10:37Z</time>
      </trkpt>
      <trkpt lat="44.70649" lon="1.56301">
        <ele>374.57</ele>
        <time>2026-05-23T08:10:50Z</time>
      </trkpt>
      <trkpt lat="44.70642" lon="1.56298">
        <ele>374.09</ele>
        <time>2026-05-23T08:10:56Z</time>
      </trkpt>
      <trkpt lat="44.70629" lon="1.56292">
        <ele>373.61</ele>
        <time>2026-05-23T08:11:07Z</time>
      </trkpt>
      <trkpt lat="44.70628" lon="1.56292">
        <ele>373.61</ele>
        <time>2026-05-23T08:11:08Z</time>
      </trkpt>
      <trkpt lat="44.70626" lon="1.56291">
        <ele>373.61</ele>
        <time>2026-05-23T08:11:09Z</time>
      </trkpt>
      <trkpt lat="44.70624" lon="1.5629">
        <ele>373.61</ele>
        <time>2026-05-23T08:11:10Z</time>
      </trkpt>
      <trkpt lat="44.70623" lon="1.56289">
        <ele>373.13</ele>
        <time>2026-05-23T08:11:11Z</time>
      </trkpt>
      <trkpt lat="44.70622" lon="1.56288">
        <ele>373.13</ele>
        <time>2026-05-23T08:11:12Z</time>
      </trkpt>
      <trkpt lat="44.70608" lon="1.56284">
        <ele>372.17</ele>
        <time>2026-05-23T08:11:24Z</time>
      </trkpt>
      <trkpt lat="44.70597" lon="1.56281">
        <ele>371.69</ele>
        <time>2026-05-23T08:11:35Z</time>
      </trkpt>
      <trkpt lat="44.70582" lon="1.56278">
        <ele>372.17</ele>
        <time>2026-05-23T08:11:46Z</time>
      </trkpt>
      <trkpt lat="44.70581" lon="1.56277">
        <ele>372.17</ele>
        <time>2026-05-23T08:11:47Z</time>
      </trkpt>
      <trkpt lat="44.70579" lon="1.56276">
        <ele>372.17</ele>
        <time>2026-05-23T08:11:48Z</time>
      </trkpt>
      <trkpt lat="44.70575" lon="1.56273">
        <ele>371.69</ele>
        <time>2026-05-23T08:11:51Z</time>
      </trkpt>
      <trkpt lat="44.7056" lon="1.56267">
        <ele>372.17</ele>
        <time>2026-05-23T08:12:04Z</time>
      </trkpt>
      <trkpt lat="44.70559" lon="1.56267">
        <ele>372.17</ele>
        <time>2026-05-23T08:12:05Z</time>
      </trkpt>
      <trkpt lat="44.70557" lon="1.56266">
        <ele>372.65</ele>
        <time>2026-05-23T08:12:07Z</time>
      </trkpt>
      <trkpt lat="44.70555" lon="1.56265">
        <ele>372.65</ele>
        <time>2026-05-23T08:12:08Z</time>
      </trkpt>
      <trkpt lat="44.70554" lon="1.56264">
        <ele>372.65</ele>
        <time>2026-05-23T08:12:09Z</time>
      </trkpt>
      <trkpt lat="44.70552" lon="1.56263">
        <ele>372.65</ele>
        <time>2026-05-23T08:12:10Z</time>
      </trkpt>
      <trkpt lat="44.70551" lon="1.56262">
        <ele>372.65</ele>
        <time>2026-05-23T08:12:11Z</time>
      </trkpt>
      <trkpt lat="44.70539" lon="1.56255">
        <ele>373.13</ele>
        <time>2026-05-23T08:12:22Z</time>
      </trkpt>
      <trkpt lat="44.70522" lon="1.56242">
        <ele>374.09</ele>
        <time>2026-05-23T08:12:36Z</time>
      </trkpt>
      <trkpt lat="44.70507" lon="1.56229">
        <ele>373.13</ele>
        <time>2026-05-23T08:12:51Z</time>
      </trkpt>
      <trkpt lat="44.70502" lon="1.56223">
        <ele>372.17</ele>
        <time>2026-05-23T08:12:56Z</time>
      </trkpt>
      <trkpt lat="44.705" lon="1.56222">
        <ele>372.17</ele>
        <time>2026-05-23T08:12:57Z</time>
      </trkpt>
      <trkpt lat="44.705" lon="1.56221">
        <ele>372.17</ele>
        <time>2026-05-23T08:12:58Z</time>
      </trkpt>
      <trkpt lat="44.70499" lon="1.5622">
        <ele>372.17</ele>
        <time>2026-05-23T08:12:59Z</time>
      </trkpt>
      <trkpt lat="44.70487" lon="1.5621">
        <ele>371.69</ele>
        <time>2026-05-23T08:13:11Z</time>
      </trkpt>
      <trkpt lat="44.70485" lon="1.56209">
        <ele>371.69</ele>
        <time>2026-05-23T08:13:12Z</time>
      </trkpt>
      <trkpt lat="44.70484" lon="1.56208">
        <ele>371.21</ele>
        <time>2026-05-23T08:13:13Z</time>
      </trkpt>
      <trkpt lat="44.70483" lon="1.56206">
        <ele>371.21</ele>
        <time>2026-05-23T08:13:14Z</time>
      </trkpt>
      <trkpt lat="44.70482" lon="1.56205">
        <ele>371.21</ele>
        <time>2026-05-23T08:13:15Z</time>
      </trkpt>
      <trkpt lat="44.70481" lon="1.56204">
        <ele>370.73</ele>
        <time>2026-05-23T08:13:16Z</time>
      </trkpt>
      <trkpt lat="44.7048" lon="1.56203">
        <ele>370.73</ele>
        <time>2026-05-23T08:13:17Z</time>
      </trkpt>
      <trkpt lat="44.70477" lon="1.56201">
        <ele>370.24</ele>
        <time>2026-05-23T08:13:20Z</time>
      </trkpt>
      <trkpt lat="44.70475" lon="1.562">
        <ele>370.24</ele>
        <time>2026-05-23T08:13:22Z</time>
      </trkpt>
      <trkpt lat="44.70474" lon="1.562">
        <ele>369.76</ele>
        <time>2026-05-23T08:13:23Z</time>
      </trkpt>
      <trkpt lat="44.70473" lon="1.56198">
        <ele>369.76</ele>
        <time>2026-05-23T08:13:24Z</time>
      </trkpt>
      <trkpt lat="44.70466" lon="1.56191">
        <ele>368.8</ele>
        <time>2026-05-23T08:13:32Z</time>
      </trkpt>
      <trkpt lat="44.70464" lon="1.5619">
        <ele>368.8</ele>
        <time>2026-05-23T08:13:33Z</time>
      </trkpt>
      <trkpt lat="44.70463" lon="1.56189">
        <ele>368.8</ele>
        <time>2026-05-23T08:13:34Z</time>
      </trkpt>
      <trkpt lat="44.70462" lon="1.56188">
        <ele>369.28</ele>
        <time>2026-05-23T08:13:35Z</time>
      </trkpt>
      <trkpt lat="44.70461" lon="1.56186">
        <ele>369.28</ele>
        <time>2026-05-23T08:13:36Z</time>
      </trkpt>
      <trkpt lat="44.7046" lon="1.56184">
        <ele>369.76</ele>
        <time>2026-05-23T08:13:37Z</time>
      </trkpt>
      <trkpt lat="44.70459" lon="1.56183">
        <ele>369.76</ele>
        <time>2026-05-23T08:13:38Z</time>
      </trkpt>
      <trkpt lat="44.70458" lon="1.56182">
        <ele>369.76</ele>
        <time>2026-05-23T08:13:39Z</time>
      </trkpt>
      <trkpt lat="44.70447" lon="1.56163">
        <ele>371.21</ele>
        <time>2026-05-23T08:13:53Z</time>
      </trkpt>
      <trkpt lat="44.7044" lon="1.56145">
        <ele>373.61</ele>
        <time>2026-05-23T08:14:04Z</time>
      </trkpt>
      <trkpt lat="44.70437" lon="1.56142">
        <ele>373.61</ele>
        <time>2026-05-23T08:14:07Z</time>
      </trkpt>
      <trkpt lat="44.70434" lon="1.5614">
        <ele>374.09</ele>
        <time>2026-05-23T08:14:10Z</time>
      </trkpt>
      <trkpt lat="44.70428" lon="1.56123">
        <ele>374.57</ele>
        <time>2026-05-23T08:14:22Z</time>
      </trkpt>
      <trkpt lat="44.70419" lon="1.56105">
        <ele>374.57</ele>
        <time>2026-05-23T08:14:34Z</time>
      </trkpt>
      <trkpt lat="44.70412" lon="1.5609">
        <ele>374.57</ele>
        <time>2026-05-23T08:14:44Z</time>
      </trkpt>
      <trkpt lat="44.70407" lon="1.56093">
        <ele>374.09</ele>
        <time>2026-05-23T08:14:52Z</time>
      </trkpt>
      <trkpt lat="44.70399" lon="1.56105">
        <ele>372.65</ele>
        <time>2026-05-23T08:15:04Z</time>
      </trkpt>
      <trkpt lat="44.70396" lon="1.56111">
        <ele>372.65</ele>
        <time>2026-05-23T08:15:09Z</time>
      </trkpt>
      <trkpt lat="44.70386" lon="1.56124">
        <ele>372.65</ele>
        <time>2026-05-23T08:15:20Z</time>
      </trkpt>
      <trkpt lat="44.70377" lon="1.56138">
        <ele>374.57</ele>
        <time>2026-05-23T08:15:32Z</time>
      </trkpt>
      <trkpt lat="44.70373" lon="1.56151">
        <ele>375.05</ele>
        <time>2026-05-23T08:15:41Z</time>
      </trkpt>
      <trkpt lat="44.70367" lon="1.56162">
        <ele>373.13</ele>
        <time>2026-05-23T08:15:53Z</time>
      </trkpt>
      <trkpt lat="44.70362" lon="1.56175">
        <ele>372.17</ele>
        <time>2026-05-23T08:16:02Z</time>
      </trkpt>
      <trkpt lat="44.70351" lon="1.56196">
        <ele>370.73</ele>
        <time>2026-05-23T08:16:16Z</time>
      </trkpt>
      <trkpt lat="44.70343" lon="1.56215">
        <ele>369.76</ele>
        <time>2026-05-23T08:16:28Z</time>
      </trkpt>
      <trkpt lat="44.7034" lon="1.56222">
        <ele>369.28</ele>
        <time>2026-05-23T08:16:32Z</time>
      </trkpt>
      <trkpt lat="44.70325" lon="1.56227">
        <ele>368.32</ele>
        <time>2026-05-23T08:16:45Z</time>
      </trkpt>
      <trkpt lat="44.7031" lon="1.56229">
        <ele>366.4</ele>
        <time>2026-05-23T08:16:58Z</time>
      </trkpt>
      <trkpt lat="44.70292" lon="1.56228">
        <ele>366.4</ele>
        <time>2026-05-23T08:17:12Z</time>
      </trkpt>
      <trkpt lat="44.70281" lon="1.56226">
        <ele>367.36</ele>
        <time>2026-05-23T08:17:21Z</time>
      </trkpt>
      <trkpt lat="44.70267" lon="1.56219">
        <ele>367.36</ele>
        <time>2026-05-23T08:17:34Z</time>
      </trkpt>
      <trkpt lat="44.70253" lon="1.56211">
        <ele>366.88</ele>
        <time>2026-05-23T08:17:47Z</time>
      </trkpt>
      <trkpt lat="44.70234" lon="1.56204">
        <ele>367.84</ele>
        <time>2026-05-23T08:18:04Z</time>
      </trkpt>
      <trkpt lat="44.70218" lon="1.56202">
        <ele>366.88</ele>
        <time>2026-05-23T08:18:17Z</time>
      </trkpt>
      <trkpt lat="44.70217" lon="1.56202">
        <ele>366.88</ele>
        <time>2026-05-23T08:18:18Z</time>
      </trkpt>
      <trkpt lat="44.70213" lon="1.56202">
        <ele>365.92</ele>
        <time>2026-05-23T08:18:32Z</time>
      </trkpt>
      <trkpt lat="44.70209" lon="1.56204">
        <ele>364.96</ele>
        <time>2026-05-23T08:18:45Z</time>
      </trkpt>
      <trkpt lat="44.70199" lon="1.56219">
        <ele>363.04</ele>
        <time>2026-05-23T08:18:58Z</time>
      </trkpt>
      <trkpt lat="44.70191" lon="1.56233">
        <ele>363.04</ele>
        <time>2026-05-23T08:19:10Z</time>
      </trkpt>
      <trkpt lat="44.7019" lon="1.56234">
        <ele>363.04</ele>
        <time>2026-05-23T08:19:11Z</time>
      </trkpt>
      <trkpt lat="44.70173" lon="1.56232">
        <ele>362.55</ele>
        <time>2026-05-23T08:19:24Z</time>
      </trkpt>
      <trkpt lat="44.7016" lon="1.56231">
        <ele>362.07</ele>
        <time>2026-05-23T08:19:36Z</time>
      </trkpt>
      <trkpt lat="44.70145" lon="1.56226">
        <ele>361.59</ele>
        <time>2026-05-23T08:19:49Z</time>
      </trkpt>
      <trkpt lat="44.70131" lon="1.56224">
        <ele>360.15</ele>
        <time>2026-05-23T08:19:59Z</time>
      </trkpt>
      <trkpt lat="44.70118" lon="1.56221">
        <ele>358.23</ele>
        <time>2026-05-23T08:20:10Z</time>
      </trkpt>
      <trkpt lat="44.70101" lon="1.56217">
        <ele>356.31</ele>
        <time>2026-05-23T08:20:22Z</time>
      </trkpt>
      <trkpt lat="44.70095" lon="1.56214">
        <ele>355.34</ele>
        <time>2026-05-23T08:20:30Z</time>
      </trkpt>
      <trkpt lat="44.70081" lon="1.56206">
        <ele>352.94</ele>
        <time>2026-05-23T08:20:41Z</time>
      </trkpt>
      <trkpt lat="44.70078" lon="1.56204">
        <ele>352.46</ele>
        <time>2026-05-23T08:20:44Z</time>
      </trkpt>
      <trkpt lat="44.70062" lon="1.56185">
        <ele>348.62</ele>
        <time>2026-05-23T08:21:02Z</time>
      </trkpt>
      <trkpt lat="44.7006" lon="1.56184">
        <ele>348.13</ele>
        <time>2026-05-23T08:21:04Z</time>
      </trkpt>
      <trkpt lat="44.70055" lon="1.5618">
        <ele>347.17</ele>
        <time>2026-05-23T08:21:10Z</time>
      </trkpt>
      <trkpt lat="44.70054" lon="1.56178">
        <ele>347.17</ele>
        <time>2026-05-23T08:21:11Z</time>
      </trkpt>
      <trkpt lat="44.70053" lon="1.56177">
        <ele>347.17</ele>
        <time>2026-05-23T08:21:12Z</time>
      </trkpt>
      <trkpt lat="44.7004" lon="1.56161">
        <ele>348.13</ele>
        <time>2026-05-23T08:21:27Z</time>
      </trkpt>
      <trkpt lat="44.70025" lon="1.56143">
        <ele>348.62</ele>
        <time>2026-05-23T08:21:40Z</time>
      </trkpt>
      <trkpt lat="44.70014" lon="1.56131">
        <ele>348.62</ele>
        <time>2026-05-23T08:21:51Z</time>
      </trkpt>
      <trkpt lat="44.70013" lon="1.5613">
        <ele>348.62</ele>
        <time>2026-05-23T08:21:52Z</time>
      </trkpt>
      <trkpt lat="44.70011" lon="1.56129">
        <ele>348.62</ele>
        <time>2026-05-23T08:21:53Z</time>
      </trkpt>
      <trkpt lat="44.7001" lon="1.56128">
        <ele>348.62</ele>
        <time>2026-05-23T08:21:54Z</time>
      </trkpt>
      <trkpt lat="44.70008" lon="1.56126">
        <ele>348.62</ele>
        <time>2026-05-23T08:21:55Z</time>
      </trkpt>
      <trkpt lat="44.70007" lon="1.56125">
        <ele>348.62</ele>
        <time>2026-05-23T08:21:56Z</time>
      </trkpt>
      <trkpt lat="44.7" lon="1.56122">
        <ele>347.17</ele>
        <time>2026-05-23T08:22:03Z</time>
      </trkpt>
      <trkpt lat="44.69999" lon="1.56121">
        <ele>346.69</ele>
        <time>2026-05-23T08:22:04Z</time>
      </trkpt>
      <trkpt lat="44.69997" lon="1.5612">
        <ele>346.69</ele>
        <time>2026-05-23T08:22:05Z</time>
      </trkpt>
      <trkpt lat="44.69987" lon="1.56113">
        <ele>346.21</ele>
        <time>2026-05-23T08:22:13Z</time>
      </trkpt>
      <trkpt lat="44.69986" lon="1.56113">
        <ele>346.21</ele>
        <time>2026-05-23T08:22:14Z</time>
      </trkpt>
      <trkpt lat="44.69985" lon="1.56113">
        <ele>346.21</ele>
        <time>2026-05-23T08:22:15Z</time>
      </trkpt>
      <trkpt lat="44.69975" lon="1.56105">
        <ele>346.21</ele>
        <time>2026-05-23T08:22:23Z</time>
      </trkpt>
      <trkpt lat="44.69974" lon="1.56105">
        <ele>345.73</ele>
        <time>2026-05-23T08:22:24Z</time>
      </trkpt>
      <trkpt lat="44.6996" lon="1.56099">
        <ele>343.81</ele>
        <time>2026-05-23T08:22:36Z</time>
      </trkpt>
      <trkpt lat="44.69937" lon="1.56101">
        <ele>340.92</ele>
        <time>2026-05-23T08:22:56Z</time>
      </trkpt>
      <trkpt lat="44.6993" lon="1.56103">
        <ele>340.44</ele>
        <time>2026-05-23T08:23:00Z</time>
      </trkpt>
      <trkpt lat="44.69928" lon="1.56102">
        <ele>340.44</ele>
        <time>2026-05-23T08:23:01Z</time>
      </trkpt>
      <trkpt lat="44.69926" lon="1.56103">
        <ele>340.44</ele>
        <time>2026-05-23T08:23:02Z</time>
      </trkpt>
      <trkpt lat="44.69925" lon="1.56104">
        <ele>339.96</ele>
        <time>2026-05-23T08:23:03Z</time>
      </trkpt>
      <trkpt lat="44.69924" lon="1.56104">
        <ele>339.96</ele>
        <time>2026-05-23T08:23:04Z</time>
      </trkpt>
      <trkpt lat="44.69917" lon="1.56112">
        <ele>339.48</ele>
        <time>2026-05-23T08:23:15Z</time>
      </trkpt>
      <trkpt lat="44.69905" lon="1.56114">
        <ele>334.68</ele>
        <time>2026-05-23T08:23:27Z</time>
      </trkpt>
      <trkpt lat="44.69884" lon="1.56114">
        <ele>329.87</ele>
        <time>2026-05-23T08:23:39Z</time>
      </trkpt>
      <trkpt lat="44.6988" lon="1.56121">
        <ele>327.47</ele>
        <time>2026-05-23T08:23:47Z</time>
      </trkpt>
      <trkpt lat="44.69867" lon="1.56128">
        <ele>323.62</ele>
        <time>2026-05-23T08:23:57Z</time>
      </trkpt>
      <trkpt lat="44.69865" lon="1.56128">
        <ele>323.14</ele>
        <time>2026-05-23T08:23:59Z</time>
      </trkpt>
      <trkpt lat="44.69863" lon="1.56127">
        <ele>322.66</ele>
        <time>2026-05-23T08:24:00Z</time>
      </trkpt>
      <trkpt lat="44.69862" lon="1.56128">
        <ele>322.18</ele>
        <time>2026-05-23T08:24:01Z</time>
      </trkpt>
      <trkpt lat="44.6986" lon="1.5613">
        <ele>321.7</ele>
        <time>2026-05-23T08:24:02Z</time>
      </trkpt>
      <trkpt lat="44.69859" lon="1.56131">
        <ele>321.22</ele>
        <time>2026-05-23T08:24:03Z</time>
      </trkpt>
      <trkpt lat="44.69857" lon="1.56132">
        <ele>321.22</ele>
        <time>2026-05-23T08:24:04Z</time>
      </trkpt>
      <trkpt lat="44.69849" lon="1.56137">
        <ele>320.26</ele>
        <time>2026-05-23T08:24:15Z</time>
      </trkpt>
      <trkpt lat="44.69835" lon="1.56138">
        <ele>319.3</ele>
        <time>2026-05-23T08:24:27Z</time>
      </trkpt>
      <trkpt lat="44.69819" lon="1.56133">
        <ele>319.3</ele>
        <time>2026-05-23T08:24:40Z</time>
      </trkpt>
      <trkpt lat="44.69804" lon="1.56123">
        <ele>321.7</ele>
        <time>2026-05-23T08:24:53Z</time>
      </trkpt>
      <trkpt lat="44.6979" lon="1.56109">
        <ele>321.7</ele>
        <time>2026-05-23T08:25:07Z</time>
      </trkpt>
      <trkpt lat="44.69773" lon="1.56092">
        <ele>317.85</ele>
        <time>2026-05-23T08:25:23Z</time>
      </trkpt>
      <trkpt lat="44.69757" lon="1.56072">
        <ele>319.78</ele>
        <time>2026-05-23T08:25:39Z</time>
      </trkpt>
      <trkpt lat="44.69749" lon="1.5606">
        <ele>318.33</ele>
        <time>2026-05-23T08:25:49Z</time>
      </trkpt>
      <trkpt lat="44.69739" lon="1.56039">
        <ele>317.37</ele>
        <time>2026-05-23T08:26:04Z</time>
      </trkpt>
      <trkpt lat="44.69734" lon="1.56032">
        <ele>316.89</ele>
        <time>2026-05-23T08:26:10Z</time>
      </trkpt>
      <trkpt lat="44.69721" lon="1.56014">
        <ele>314.49</ele>
        <time>2026-05-23T08:26:24Z</time>
      </trkpt>
      <trkpt lat="44.69708" lon="1.55993">
        <ele>310.64</ele>
        <time>2026-05-23T08:26:39Z</time>
      </trkpt>
      <trkpt lat="44.6969" lon="1.55973">
        <ele>309.2</ele>
        <time>2026-05-23T08:26:53Z</time>
      </trkpt>
      <trkpt lat="44.69688" lon="1.55968">
        <ele>309.2</ele>
        <time>2026-05-23T08:26:56Z</time>
      </trkpt>
      <trkpt lat="44.69672" lon="1.55961">
        <ele>306.8</ele>
        <time>2026-05-23T08:27:10Z</time>
      </trkpt>
      <trkpt lat="44.69652" lon="1.55948">
        <ele>304.39</ele>
        <time>2026-05-23T08:27:27Z</time>
      </trkpt>
      <trkpt lat="44.69648" lon="1.55942">
        <ele>304.39</ele>
        <time>2026-05-23T08:27:32Z</time>
      </trkpt>
      <trkpt lat="44.69647" lon="1.55941">
        <ele>303.91</ele>
        <time>2026-05-23T08:27:33Z</time>
      </trkpt>
      <trkpt lat="44.69634" lon="1.55922">
        <ele>303.91</ele>
        <time>2026-05-23T08:27:49Z</time>
      </trkpt>
      <trkpt lat="44.6962" lon="1.55914">
        <ele>305.36</ele>
        <time>2026-05-23T08:28:03Z</time>
      </trkpt>
      <trkpt lat="44.696" lon="1.55919">
        <ele>306.8</ele>
        <time>2026-05-23T08:28:17Z</time>
      </trkpt>
      <trkpt lat="44.69592" lon="1.55925">
        <ele>308.24</ele>
        <time>2026-05-23T08:28:25Z</time>
      </trkpt>
      <trkpt lat="44.6959" lon="1.55926">
        <ele>308.24</ele>
        <time>2026-05-23T08:28:26Z</time>
      </trkpt>
      <trkpt lat="44.69589" lon="1.55926">
        <ele>308.24</ele>
        <time>2026-05-23T08:28:27Z</time>
      </trkpt>
      <trkpt lat="44.69588" lon="1.55926">
        <ele>308.24</ele>
        <time>2026-05-23T08:28:28Z</time>
      </trkpt>
      <trkpt lat="44.69586" lon="1.55925">
        <ele>308.72</ele>
        <time>2026-05-23T08:28:30Z</time>
      </trkpt>
      <trkpt lat="44.69584" lon="1.55924">
        <ele>308.72</ele>
        <time>2026-05-23T08:28:31Z</time>
      </trkpt>
      <trkpt lat="44.69583" lon="1.55924">
        <ele>308.72</ele>
        <time>2026-05-23T08:28:32Z</time>
      </trkpt>
      <trkpt lat="44.69582" lon="1.55925">
        <ele>308.72</ele>
        <time>2026-05-23T08:28:33Z</time>
      </trkpt>
      <trkpt lat="44.69581" lon="1.55925">
        <ele>309.2</ele>
        <time>2026-05-23T08:28:34Z</time>
      </trkpt>
      <trkpt lat="44.69566" lon="1.55929">
        <ele>309.2</ele>
        <time>2026-05-23T08:28:45Z</time>
      </trkpt>
      <trkpt lat="44.69565" lon="1.5593">
        <ele>308.72</ele>
        <time>2026-05-23T08:28:46Z</time>
      </trkpt>
      <trkpt lat="44.69563" lon="1.5593">
        <ele>309.2</ele>
        <time>2026-05-23T08:28:47Z</time>
      </trkpt>
      <trkpt lat="44.69561" lon="1.55923">
        <ele>309.68</ele>
        <time>2026-05-23T08:28:55Z</time>
      </trkpt>
      <trkpt lat="44.69562" lon="1.55915">
        <ele>311.12</ele>
        <time>2026-05-23T08:29:06Z</time>
      </trkpt>
      <trkpt lat="44.69561" lon="1.55914">
        <ele>312.09</ele>
        <time>2026-05-23T08:29:22Z</time>
      </trkpt>
      <trkpt lat="44.69562" lon="1.55913">
        <ele>312.57</ele>
        <time>2026-05-23T08:29:36Z</time>
      </trkpt>
      <trkpt lat="44.69563" lon="1.5591">
        <ele>313.53</ele>
        <time>2026-05-23T08:29:59Z</time>
      </trkpt>
      <trkpt lat="44.69564" lon="1.55916">
        <ele>314.97</ele>
        <time>2026-05-23T08:30:26Z</time>
      </trkpt>
      <trkpt lat="44.69566" lon="1.55912">
        <ele>314.49</ele>
        <time>2026-05-23T08:30:42Z</time>
      </trkpt>
      <trkpt lat="44.69571" lon="1.55899">
        <ele>313.05</ele>
        <time>2026-05-23T08:31:01Z</time>
      </trkpt>
      <trkpt lat="44.69577" lon="1.55883">
        <ele>311.12</ele>
        <time>2026-05-23T08:31:15Z</time>
      </trkpt>
      <trkpt lat="44.69578" lon="1.55881">
        <ele>311.12</ele>
        <time>2026-05-23T08:31:17Z</time>
      </trkpt>
      <trkpt lat="44.6959" lon="1.55866">
        <ele>310.16</ele>
        <time>2026-05-23T08:31:34Z</time>
      </trkpt>
      <trkpt lat="44.69602" lon="1.55846">
        <ele>310.64</ele>
        <time>2026-05-23T08:31:49Z</time>
      </trkpt>
      <trkpt lat="44.69613" lon="1.5583">
        <ele>311.12</ele>
        <time>2026-05-23T08:32:05Z</time>
      </trkpt>
      <trkpt lat="44.69623" lon="1.55814">
        <ele>311.12</ele>
        <time>2026-05-23T08:32:19Z</time>
      </trkpt>
      <trkpt lat="44.69634" lon="1.55791">
        <ele>312.09</ele>
        <time>2026-05-23T08:32:36Z</time>
      </trkpt>
      <trkpt lat="44.69645" lon="1.55768">
        <ele>312.57</ele>
        <time>2026-05-23T08:32:54Z</time>
      </trkpt>
      <trkpt lat="44.69659" lon="1.55745">
        <ele>314.97</ele>
        <time>2026-05-23T08:33:10Z</time>
      </trkpt>
      <trkpt lat="44.69669" lon="1.55723">
        <ele>319.78</ele>
        <time>2026-05-23T08:33:26Z</time>
      </trkpt>
      <trkpt lat="44.69679" lon="1.55706">
        <ele>321.22</ele>
        <time>2026-05-23T08:33:40Z</time>
      </trkpt>
      <trkpt lat="44.69688" lon="1.55691">
        <ele>323.14</ele>
        <time>2026-05-23T08:33:54Z</time>
      </trkpt>
      <trkpt lat="44.69697" lon="1.55673">
        <ele>324.1</ele>
        <time>2026-05-23T08:34:06Z</time>
      </trkpt>
      <trkpt lat="44.69708" lon="1.55652">
        <ele>326.5</ele>
        <time>2026-05-23T08:34:22Z</time>
      </trkpt>
      <trkpt lat="44.69713" lon="1.55641">
        <ele>326.5</ele>
        <time>2026-05-23T08:34:29Z</time>
      </trkpt>
      <trkpt lat="44.69714" lon="1.5564">
        <ele>326.5</ele>
        <time>2026-05-23T08:34:30Z</time>
      </trkpt>
      <trkpt lat="44.69725" lon="1.55617">
        <ele>326.99</ele>
        <time>2026-05-23T08:34:44Z</time>
      </trkpt>
      <trkpt lat="44.69733" lon="1.55599">
        <ele>326.99</ele>
        <time>2026-05-23T08:34:57Z</time>
      </trkpt>
      <trkpt lat="44.69739" lon="1.55582">
        <ele>326.5</ele>
        <time>2026-05-23T08:35:08Z</time>
      </trkpt>
      <trkpt lat="44.69747" lon="1.55564">
        <ele>327.47</ele>
        <time>2026-05-23T08:35:19Z</time>
      </trkpt>
      <trkpt lat="44.69755" lon="1.5555">
        <ele>325.54</ele>
        <time>2026-05-23T08:35:30Z</time>
      </trkpt>
      <trkpt lat="44.69772" lon="1.55534">
        <ele>325.54</ele>
        <time>2026-05-23T08:35:45Z</time>
      </trkpt>
      <trkpt lat="44.69786" lon="1.55524">
        <ele>326.02</ele>
        <time>2026-05-23T08:35:56Z</time>
      </trkpt>
      <trkpt lat="44.69798" lon="1.55514">
        <ele>326.02</ele>
        <time>2026-05-23T08:36:08Z</time>
      </trkpt>
      <trkpt lat="44.69811" lon="1.55502">
        <ele>325.54</ele>
        <time>2026-05-23T08:36:20Z</time>
      </trkpt>
      <trkpt lat="44.69825" lon="1.55489">
        <ele>324.1</ele>
        <time>2026-05-23T08:36:33Z</time>
      </trkpt>
      <trkpt lat="44.69838" lon="1.55471">
        <ele>322.66</ele>
        <time>2026-05-23T08:36:47Z</time>
      </trkpt>
      <trkpt lat="44.69845" lon="1.55461">
        <ele>323.62</ele>
        <time>2026-05-23T08:36:55Z</time>
      </trkpt>
      <trkpt lat="44.69846" lon="1.5546">
        <ele>323.62</ele>
        <time>2026-05-23T08:36:56Z</time>
      </trkpt>
      <trkpt lat="44.69848" lon="1.55458">
        <ele>324.1</ele>
        <time>2026-05-23T08:36:57Z</time>
      </trkpt>
      <trkpt lat="44.69849" lon="1.55457">
        <ele>324.1</ele>
        <time>2026-05-23T08:36:58Z</time>
      </trkpt>
      <trkpt lat="44.6985" lon="1.55455">
        <ele>324.1</ele>
        <time>2026-05-23T08:36:59Z</time>
      </trkpt>
      <trkpt lat="44.69865" lon="1.55431">
        <ele>325.54</ele>
        <time>2026-05-23T08:37:15Z</time>
      </trkpt>
      <trkpt lat="44.69874" lon="1.55413">
        <ele>326.02</ele>
        <time>2026-05-23T08:37:28Z</time>
      </trkpt>
      <trkpt lat="44.69884" lon="1.55394">
        <ele>324.1</ele>
        <time>2026-05-23T08:37:42Z</time>
      </trkpt>
      <trkpt lat="44.69892" lon="1.55381">
        <ele>324.1</ele>
        <time>2026-05-23T08:37:53Z</time>
      </trkpt>
      <trkpt lat="44.69905" lon="1.5536">
        <ele>325.06</ele>
        <time>2026-05-23T08:38:07Z</time>
      </trkpt>
      <trkpt lat="44.69914" lon="1.55336">
        <ele>324.1</ele>
        <time>2026-05-23T08:38:22Z</time>
      </trkpt>
      <trkpt lat="44.69922" lon="1.55313">
        <ele>326.5</ele>
        <time>2026-05-23T08:38:38Z</time>
      </trkpt>
      <trkpt lat="44.69929" lon="1.55285">
        <ele>327.95</ele>
        <time>2026-05-23T08:38:55Z</time>
      </trkpt>
      <trkpt lat="44.6993" lon="1.55273">
        <ele>328.43</ele>
        <time>2026-05-23T08:39:03Z</time>
      </trkpt>
      <trkpt lat="44.69931" lon="1.55271">
        <ele>328.43</ele>
        <time>2026-05-23T08:39:04Z</time>
      </trkpt>
      <trkpt lat="44.69932" lon="1.55269">
        <ele>328.43</ele>
        <time>2026-05-23T08:39:05Z</time>
      </trkpt>
      <trkpt lat="44.69932" lon="1.55267">
        <ele>328.43</ele>
        <time>2026-05-23T08:39:06Z</time>
      </trkpt>
      <trkpt lat="44.69933" lon="1.55265">
        <ele>328.43</ele>
        <time>2026-05-23T08:39:07Z</time>
      </trkpt>
      <trkpt lat="44.69937" lon="1.55242">
        <ele>328.43</ele>
        <time>2026-05-23T08:39:22Z</time>
      </trkpt>
      <trkpt lat="44.69942" lon="1.55215">
        <ele>328.43</ele>
        <time>2026-05-23T08:39:38Z</time>
      </trkpt>
      <trkpt lat="44.69953" lon="1.55188">
        <ele>332.27</ele>
        <time>2026-05-23T08:39:56Z</time>
      </trkpt>
      <trkpt lat="44.69964" lon="1.55163">
        <ele>335.16</ele>
        <time>2026-05-23T08:40:12Z</time>
      </trkpt>
      <trkpt lat="44.69971" lon="1.55145">
        <ele>335.16</ele>
        <time>2026-05-23T08:40:24Z</time>
      </trkpt>
      <trkpt lat="44.69977" lon="1.55122">
        <ele>335.16</ele>
        <time>2026-05-23T08:40:38Z</time>
      </trkpt>
      <trkpt lat="44.69983" lon="1.55102">
        <ele>336.6</ele>
        <time>2026-05-23T08:40:52Z</time>
      </trkpt>
      <trkpt lat="44.69993" lon="1.55077">
        <ele>339.96</ele>
        <time>2026-05-23T08:41:08Z</time>
      </trkpt>
      <trkpt lat="44.70003" lon="1.55058">
        <ele>343.33</ele>
        <time>2026-05-23T08:41:23Z</time>
      </trkpt>
      <trkpt lat="44.70014" lon="1.55036">
        <ele>346.69</ele>
        <time>2026-05-23T08:41:39Z</time>
      </trkpt>
      <trkpt lat="44.70028" lon="1.55019">
        <ele>349.58</ele>
        <time>2026-05-23T08:41:54Z</time>
      </trkpt>
      <trkpt lat="44.70037" lon="1.55007">
        <ele>352.46</ele>
        <time>2026-05-23T08:42:06Z</time>
      </trkpt>
      <trkpt lat="44.70049" lon="1.54989">
        <ele>354.86</ele>
        <time>2026-05-23T08:42:20Z</time>
      </trkpt>
      <trkpt lat="44.7006" lon="1.54967">
        <ele>357.27</ele>
        <time>2026-05-23T08:42:36Z</time>
      </trkpt>
      <trkpt lat="44.70069" lon="1.54944">
        <ele>360.15</ele>
        <time>2026-05-23T08:42:51Z</time>
      </trkpt>
      <trkpt lat="44.70081" lon="1.54919">
        <ele>364</ele>
        <time>2026-05-23T08:43:09Z</time>
      </trkpt>
      <trkpt lat="44.70088" lon="1.54912">
        <ele>365.44</ele>
        <time>2026-05-23T08:43:14Z</time>
      </trkpt>
      <trkpt lat="44.70098" lon="1.54894">
        <ele>369.28</ele>
        <time>2026-05-23T08:43:28Z</time>
      </trkpt>
      <trkpt lat="44.7011" lon="1.54878">
        <ele>370.73</ele>
        <time>2026-05-23T08:43:42Z</time>
      </trkpt>
      <trkpt lat="44.70121" lon="1.5486">
        <ele>372.65</ele>
        <time>2026-05-23T08:43:57Z</time>
      </trkpt>
      <trkpt lat="44.70134" lon="1.54841">
        <ele>372.65</ele>
        <time>2026-05-23T08:44:14Z</time>
      </trkpt>
      <trkpt lat="44.70151" lon="1.54824">
        <ele>371.69</ele>
        <time>2026-05-23T08:44:31Z</time>
      </trkpt>
      <trkpt lat="44.7016" lon="1.54826">
        <ele>374.09</ele>
        <time>2026-05-23T08:44:49Z</time>
      </trkpt>
      <trkpt lat="44.70166" lon="1.54829">
        <ele>375.53</ele>
        <time>2026-05-23T08:45:11Z</time>
      </trkpt>
      <trkpt lat="44.70171" lon="1.54836">
        <ele>374.09</ele>
        <time>2026-05-23T08:45:29Z</time>
      </trkpt>
      <trkpt lat="44.70178" lon="1.54832">
        <ele>372.65</ele>
        <time>2026-05-23T08:45:46Z</time>
      </trkpt>
      <trkpt lat="44.70182" lon="1.54822">
        <ele>371.69</ele>
        <time>2026-05-23T08:46:02Z</time>
      </trkpt>
      <trkpt lat="44.70178" lon="1.54807">
        <ele>371.21</ele>
        <time>2026-05-23T08:46:16Z</time>
      </trkpt>
      <trkpt lat="44.70175" lon="1.54787">
        <ele>370.73</ele>
        <time>2026-05-23T08:46:32Z</time>
      </trkpt>
      <trkpt lat="44.70172" lon="1.5478">
        <ele>371.69</ele>
        <time>2026-05-23T08:46:39Z</time>
      </trkpt>
      <trkpt lat="44.7016" lon="1.54771">
        <ele>373.61</ele>
        <time>2026-05-23T08:46:49Z</time>
      </trkpt>
      <trkpt lat="44.70149" lon="1.5475">
        <ele>376.01</ele>
        <time>2026-05-23T08:47:05Z</time>
      </trkpt>
      <trkpt lat="44.70138" lon="1.54731">
        <ele>379.86</ele>
        <time>2026-05-23T08:47:20Z</time>
      </trkpt>
      <trkpt lat="44.70139" lon="1.54711">
        <ele>380.82</ele>
        <time>2026-05-23T08:47:34Z</time>
      </trkpt>
      <trkpt lat="44.70141" lon="1.54698">
        <ele>381.78</ele>
        <time>2026-05-23T08:47:42Z</time>
      </trkpt>
      <trkpt lat="44.70145" lon="1.54685">
        <ele>383.7</ele>
        <time>2026-05-23T08:47:52Z</time>
      </trkpt>
      <trkpt lat="44.70147" lon="1.54675">
        <ele>384.18</ele>
        <time>2026-05-23T08:47:59Z</time>
      </trkpt>
      <trkpt lat="44.70146" lon="1.54668">
        <ele>384.66</ele>
        <time>2026-05-23T08:48:04Z</time>
      </trkpt>
      <trkpt lat="44.70158" lon="1.54654">
        <ele>385.15</ele>
        <time>2026-05-23T08:48:20Z</time>
      </trkpt>
      <trkpt lat="44.70165" lon="1.5464">
        <ele>385.63</ele>
        <time>2026-05-23T08:48:35Z</time>
      </trkpt>
      <trkpt lat="44.70166" lon="1.5464">
        <ele>385.15</ele>
        <time>2026-05-23T08:48:46Z</time>
      </trkpt>
      <trkpt lat="44.70166" lon="1.54642">
        <ele>385.15</ele>
        <time>2026-05-23T08:49:07Z</time>
      </trkpt>
    </trkseg>
  </trk>
</gpx>